Observation data for Sweetwater on 07/14/2020      Previous  Date  Next       Current Mesonet Observations  Soil Data  Daily Summary Page  Observations in Plain Language
KSW1 140500Z 18015KT 33/07 A2987 RMK A01 T03300074  RH  020%=      5-min Rain = 0
KSW1 140501Z 17014KT 33/07 A2987 RMK A01 T03300074  RH  020%=      5-min Rain = 0
KSW1 140502Z 17014KT 33/07 A2987 RMK A01 T03290074  RH  021%=      5-min Rain = 0
KSW1 140503Z 18015KT 33/07 A2987 RMK A01 T03290074  RH  021%=      5-min Rain = 0
KSW1 140504Z 18015KT 33/07 A2987 RMK A01 T03280074  RH  021%=      5-min Rain = 0
KSW1 140505Z 17014KT 33/07 A2987 RMK A01 T03280074  RH  021%=      5-min Rain = 0
KSW1 140506Z 18015KT 33/08 A2987 RMK A01 T03280075  RH  021%=      5-min Rain = 0
KSW1 140507Z 18015KT 33/08 A2987 RMK A01 T03280075  RH  021%=      5-min Rain = 0
KSW1 140508Z 18015KT 33/08 A2987 RMK A01 T03280076  RH  021%=      5-min Rain = 0
KSW1 140509Z 18014KT 33/08 A2988 RMK A01 T03270076  RH  021%=      5-min Rain = 0
KSW1 140510Z 18016KT 33/08 A2988 RMK A01 T03270076  RH  021%=      5-min Rain = 0
KSW1 140511Z 18017KT 33/08 A2988 RMK A01 T03260077  RH  021%=      5-min Rain = 0
KSW1 140512Z 18014KT 33/08 A2988 RMK A01 T03260077  RH  021%=      5-min Rain = 0
KSW1 140513Z 18016KT 33/08 A2988 RMK A01 T03260077  RH  021%=      5-min Rain = 0
KSW1 140514Z 18014KT 33/08 A2988 RMK A01 T03260077  RH  021%=      5-min Rain = 0
KSW1 140515Z 18016KT 33/08 A2988 RMK A01 T03260078  RH  021%=      5-min Rain = 0
KSW1 140516Z 18014G19KT 33/08 A2988 RMK A01 T03260078  RH  021%=      5-min Rain = 0
KSW1 140517Z 18016G21KT 33/08 A2988 RMK A01 T03250078  RH  022%=      5-min Rain = 0
KSW1 140518Z 18017KT 33/08 A2988 RMK A01 T03260078  RH  022%=      5-min Rain = 0
KSW1 140519Z 18017KT 33/08 A2988 RMK A01 T03260079  RH  022%=      5-min Rain = 0
KSW1 140520Z 18015KT 33/08 A2988 RMK A01 T03260078  RH  022%=      5-min Rain = 0
KSW1 140521Z 18017G24KT 33/08 A2988 RMK A01 T03260078  RH  022%=      5-min Rain = 0
KSW1 140522Z 18018KT 33/08 A2988 RMK A01 T03260078  RH  022%=      5-min Rain = 0
KSW1 140523Z 18016KT 33/08 A2988 RMK A01 T03260078  RH  022%=      5-min Rain = 0
KSW1 140524Z 17016KT 33/08 A2988 RMK A01 T03260078  RH  021%=      5-min Rain = 0
KSW1 140525Z 18016G21KT 33/08 A2988 RMK A01 T03260078  RH  021%=      5-min Rain = 0
KSW1 140526Z 18017KT 33/08 A2988 RMK A01 T03260078  RH  021%=      5-min Rain = 0
KSW1 140527Z 18014KT 33/08 A2988 RMK A01 T03260078  RH  021%=      5-min Rain = 0
KSW1 140528Z 18016KT 33/08 A2988 RMK A01 T03260078  RH  021%=      5-min Rain = 0
KSW1 140529Z 18016G22KT 33/08 A2988 RMK A01 T03250078  RH  022%=      5-min Rain = 0
KSW1 140530Z 18016KT 33/08 A2988 RMK A01 T03260078  RH  022%=      5-min Rain = 0
KSW1 140531Z 18014KT 33/08 A2988 RMK A01 T03250078  RH  022%=      5-min Rain = 0
KSW1 140532Z 17016KT 33/08 A2988 RMK A01 T03250078  RH  022%=      5-min Rain = 0
KSW1 140533Z 17019KT 33/08 A2988 RMK A01 T03250077  RH  021%=      5-min Rain = 0
KSW1 140534Z 17021KT 33/08 A2988 RMK A01 T03260076  RH  021%=      5-min Rain = 0
KSW1 140535Z 18020KT 33/08 A2988 RMK A01 T03270075  RH  021%=      5-min Rain = 0
KSW1 140536Z 17017KT 33/08 A2988 RMK A01 T03280075  RH  021%=      5-min Rain = 0
KSW1 140537Z 17019G24KT 33/07 A2988 RMK A01 T03270074  RH  021%=      5-min Rain = 0
KSW1 140538Z 17019KT 33/07 A2988 RMK A01 T03270074  RH  021%=      5-min Rain = 0
KSW1 140539Z 17018KT 33/07 A2988 RMK A01 T03270074  RH  021%=      5-min Rain = 0
KSW1 140540Z 17015KT 33/07 A2988 RMK A01 T03270073  RH  021%=      5-min Rain = 0
KSW1 140541Z 18018KT 33/07 A2988 RMK A01 T03260073  RH  021%=      5-min Rain = 0
KSW1 140542Z 17018KT 33/07 A2988 RMK A01 T03260072  RH  021%=      5-min Rain = 0
KSW1 140543Z 17017KT 33/07 A2988 RMK A01 T03260072  RH  021%=      5-min Rain = 0
KSW1 140544Z 18018G23KT 33/07 A2988 RMK A01 T03260072  RH  021%=      5-min Rain = 0
KSW1 140545Z 18018G25KT 33/07 A2988 RMK A01 T03260071  RH  020%=      5-min Rain = 0
KSW1 140546Z 18017KT 33/07 A2988 RMK A01 T03260071  RH  021%=      5-min Rain = 0
KSW1 140547Z 18015KT 33/07 A2988 RMK A01 T03260071  RH  021%=      5-min Rain = 0
KSW1 140548Z 17019G25KT 33/07 A2988 RMK A01 T03250071  RH  021%=      5-min Rain = 0
KSW1 140549Z 18020KT 33/07 A2988 RMK A01 T03260070  RH  020%=      5-min Rain = 0
KSW1 140550Z 18019KT 33/07 A2988 RMK A01 T03260070  RH  020%=      5-min Rain = 0
KSW1 140551Z 18019KT 33/07 A2988 RMK A01 T03260070  RH  020%=      5-min Rain = 0
KSW1 140552Z 18018KT 33/07 A2988 RMK A01 T03260070  RH  020%=      5-min Rain = 0
KSW1 140553Z 18017G22KT 33/07 A2988 RMK A01 T03260070  RH  020%=      5-min Rain = 0
KSW1 140554Z 18019G24KT 33/07 A2988 RMK A01 T03250070  RH  020%=      5-min Rain = 0
KSW1 140555Z 18018KT 33/07 A2988 RMK A01 T03250070  RH  020%=      5-min Rain = 0
KSW1 140556Z 18018KT 33/07 A2988 RMK A01 T03250070  RH  020%=      5-min Rain = 0
KSW1 140557Z 18018KT 32/07 A2988 RMK A01 T03240070  RH  021%=      5-min Rain = 0
KSW1 140558Z 18017KT 32/07 A2988 RMK A01 T03230070  RH  021%=      5-min Rain = 0
KSW1 140559Z 18015KT 32/07 A2988 RMK A01 T03230069  RH  021%=      5-min Rain = 0
KSW1 140600Z 18015G20KT 32/07 A2988 RMK A01 T03220070  RH  021%=      5-min Rain = 0
KSW1 140601Z 18015KT 32/07 A2988 RMK A01 T03210069  RH  021%=      5-min Rain = 0
KSW1 140602Z 18017KT 32/07 A2988 RMK A01 T03210069  RH  021%=      5-min Rain = 0
KSW1 140603Z 18014KT 32/07 A2988 RMK A01 T03210069  RH  021%=      5-min Rain = 0
KSW1 140604Z 18014KT 32/07 A2988 RMK A01 T03210069  RH  021%=      5-min Rain = 0
KSW1 140605Z 18015KT 32/07 A2988 RMK A01 T03200069  RH  021%=      5-min Rain = 0
KSW1 140606Z 18015KT 32/07 A2988 RMK A01 T03200069  RH  021%=      5-min Rain = 0
KSW1 140607Z 18015KT 32/07 A2988 RMK A01 T03200069  RH  021%=      5-min Rain = 0
KSW1 140608Z 18016KT 32/07 A2988 RMK A01 T03200069  RH  021%=      5-min Rain = 0
KSW1 140609Z 18014KT 32/07 A2988 RMK A01 T03200068  RH  021%=      5-min Rain = 0
KSW1 140610Z 18015KT 32/07 A2988 RMK A01 T03200069  RH  021%=      5-min Rain = 0
KSW1 140611Z 18018G23KT 32/07 A2988 RMK A01 T03190069  RH  021%=      5-min Rain = 0
KSW1 140612Z 18015KT 32/07 A2988 RMK A01 T03200068  RH  021%=      5-min Rain = 0
KSW1 140613Z 18016KT 32/07 A2988 RMK A01 T03200068  RH  021%=      5-min Rain = 0
KSW1 140614Z 18014KT 32/07 A2988 RMK A01 T03200068  RH  021%=      5-min Rain = 0
KSW1 140615Z 18015KT 32/07 A2988 RMK A01 T03200068  RH  021%=      5-min Rain = 0
KSW1 140616Z 18019KT 32/07 A2988 RMK A01 T03190068  RH  021%=      5-min Rain = 0
KSW1 140617Z 18014KT 32/07 A2988 RMK A01 T03200068  RH  021%=      5-min Rain = 0
KSW1 140618Z 18017KT 32/07 A2988 RMK A01 T03200068  RH  021%=      5-min Rain = 0
KSW1 140619Z 18015G21KT 32/07 A2988 RMK A01 T03200068  RH  021%=      5-min Rain = 0
KSW1 140620Z 18015KT 32/07 A2988 RMK A01 T03200068  RH  021%=      5-min Rain = 0
KSW1 140621Z 18014G21KT 32/07 A2988 RMK A01 T03190068  RH  021%=      5-min Rain = 0
KSW1 140622Z 18016KT 32/07 A2988 RMK A01 T03190068  RH  021%=      5-min Rain = 0
KSW1 140623Z 18016KT 32/07 A2988 RMK A01 T03190068  RH  021%=      5-min Rain = 0
KSW1 140624Z 18016KT 32/07 A2988 RMK A01 T03190068  RH  021%=      5-min Rain = 0
KSW1 140625Z 18016KT 32/07 A2988 RMK A01 T03190067  RH  021%=      5-min Rain = 0
KSW1 140626Z 18015KT 32/07 A2988 RMK A01 T03190067  RH  021%=      5-min Rain = 0
KSW1 140627Z 18013KT 32/07 A2988 RMK A01 T03190068  RH  021%=      5-min Rain = 0
KSW1 140628Z 18015KT 32/07 A2988 RMK A01 T03180068  RH  021%=      5-min Rain = 0
KSW1 140629Z 18017KT 32/07 A2988 RMK A01 T03170068  RH  021%=      5-min Rain = 0
KSW1 140630Z 18018KT 32/07 A2988 RMK A01 T03180067  RH  021%=      5-min Rain = 0
KSW1 140631Z 18016KT 32/07 A2988 RMK A01 T03190067  RH  021%=      5-min Rain = 0
KSW1 140632Z 18017KT 32/07 A2988 RMK A01 T03200068  RH  021%=      5-min Rain = 0
KSW1 140633Z 18015G20KT 32/07 A2988 RMK A01 T03200068  RH  021%=      5-min Rain = 0
KSW1 140634Z 18014G20KT 32/07 A2988 RMK A01 T03190068  RH  021%=      5-min Rain = 0
KSW1 140635Z 18014KT 32/07 A2988 RMK A01 T03180068  RH  021%=      5-min Rain = 0
KSW1 140636Z 18016KT 32/07 A2987 RMK A01 T03180068  RH  021%=      5-min Rain = 0
KSW1 140637Z 17018KT 32/07 A2987 RMK A01 T03180068  RH  021%=      5-min Rain = 0
KSW1 140638Z 18015KT 32/07 A2987 RMK A01 T03190067  RH  021%=      5-min Rain = 0
KSW1 140639Z 17017G22KT 32/07 A2988 RMK A01 T03190067  RH  021%=      5-min Rain = 0
KSW1 140640Z 17016G21KT 32/07 A2987 RMK A01 T03180067  RH  021%=      5-min Rain = 0
KSW1 140641Z 18016G21KT 32/07 A2988 RMK A01 T03180067  RH  021%=      5-min Rain = 0
KSW1 140642Z 17016G21KT 32/07 A2987 RMK A01 T03180067  RH  021%=      5-min Rain = 0
KSW1 140643Z 17017KT 32/07 A2987 RMK A01 T03180067  RH  021%=      5-min Rain = 0
KSW1 140644Z 17016KT 32/07 A2988 RMK A01 T03180067  RH  021%=      5-min Rain = 0
KSW1 140645Z 18016G22KT 32/07 A2987 RMK A01 T03180067  RH  021%=      5-min Rain = 0
KSW1 140646Z 17016KT 32/07 A2987 RMK A01 T03180067  RH  021%=      5-min Rain = 0
KSW1 140647Z 17016KT 32/07 A2987 RMK A01 T03170067  RH  021%=      5-min Rain = 0
KSW1 140648Z 17016G22KT 32/07 A2987 RMK A01 T03170067  RH  021%=      5-min Rain = 0
KSW1 140649Z 17016KT 32/07 A2987 RMK A01 T03170066  RH  021%=      5-min Rain = 0
KSW1 140650Z 17016KT 32/07 A2987 RMK A01 T03170067  RH  021%=      5-min Rain = 0
KSW1 140651Z 18017KT 32/07 A2988 RMK A01 T03160066  RH  021%=      5-min Rain = 0
KSW1 140652Z 17015G20KT 32/07 A2987 RMK A01 T03160067  RH  021%=      5-min Rain = 0
KSW1 140653Z 18017KT 32/07 A2987 RMK A01 T03160066  RH  021%=      5-min Rain = 0
KSW1 140654Z 17016KT 32/07 A2987 RMK A01 T03160066  RH  021%=      5-min Rain = 0
KSW1 140655Z 18016KT 32/07 A2987 RMK A01 T03150066  RH  021%=      5-min Rain = 0
KSW1 140656Z 18014KT 32/07 A2987 RMK A01 T03150066  RH  021%=      5-min Rain = 0
KSW1 140657Z 18016G21KT 31/07 A2987 RMK A01 T03140066  RH  021%=      5-min Rain = 0
KSW1 140658Z 18016KT 31/07 A2987 RMK A01 T03140066  RH  021%=      5-min Rain = 0
KSW1 140659Z 18018KT 31/07 A2987 RMK A01 T03140067  RH  021%=      5-min Rain = 0
KSW1 140700Z 18017KT 31/07 A2987 RMK A01 T03140066  RH  021%=      5-min Rain = 0
KSW1 140701Z 17016KT 31/07 A2987 RMK A01 T03140066  RH  021%=      5-min Rain = 0
KSW1 140702Z 18016KT 31/07 A2987 RMK A01 T03140067  RH  021%=      5-min Rain = 0
KSW1 140703Z 18016G21KT 31/07 A2987 RMK A01 T03140066  RH  021%=      5-min Rain = 0
KSW1 140704Z 17015KT 31/07 A2987 RMK A01 T03140067  RH  021%=      5-min Rain = 0
KSW1 140705Z 17015G20KT 31/07 A2987 RMK A01 T03140067  RH  021%=      5-min Rain = 0
KSW1 140706Z 18018KT 31/07 A2987 RMK A01 T03130067  RH  021%=      5-min Rain = 0
KSW1 140707Z 18016KT 31/07 A2987 RMK A01 T03140067  RH  021%=      5-min Rain = 0
KSW1 140708Z 17019KT 31/07 A2987 RMK A01 T03140067  RH  021%=      5-min Rain = 0
KSW1 140709Z 18015KT 32/07 A2987 RMK A01 T03150068  RH  021%=      5-min Rain = 0
KSW1 140710Z 18015KT 32/07 A2987 RMK A01 T03160068  RH  021%=      5-min Rain = 0
KSW1 140711Z 18016KT 32/07 A2987 RMK A01 T03150068  RH  021%=      5-min Rain = 0
KSW1 140712Z 17018G24KT 31/07 A2987 RMK A01 T03140068  RH  021%=      5-min Rain = 0
KSW1 140713Z 18020KT 32/07 A2987 RMK A01 T03150068  RH  021%=      5-min Rain = 0
KSW1 140714Z 17016KT 32/07 A2987 RMK A01 T03160069  RH  021%=      5-min Rain = 0
KSW1 140715Z 17017G22KT 32/07 A2987 RMK A01 T03160069  RH  021%=      5-min Rain = 0
KSW1 140716Z 17016G21KT 32/07 A2987 RMK A01 T03160069  RH  021%=      5-min Rain = 0
KSW1 140717Z 18015KT 32/07 A2987 RMK A01 T03160069  RH  021%=      5-min Rain = 0
KSW1 140718Z 18018KT 32/07 A2987 RMK A01 T03160070  RH  021%=      5-min Rain = 0
KSW1 140719Z 18018KT 32/07 A2987 RMK A01 T03160070  RH  021%=      5-min Rain = 0
KSW1 140720Z 18016G21KT 32/07 A2987 RMK A01 T03170070  RH  021%=      5-min Rain = 0
KSW1 140721Z 18017KT 32/07 A2987 RMK A01 T03160070  RH  022%=      5-min Rain = 0
KSW1 140722Z 18015KT 32/07 A2987 RMK A01 T03160070  RH  022%=      5-min Rain = 0
KSW1 140723Z 18015KT 32/07 A2987 RMK A01 T03160071  RH  022%=      5-min Rain = 0
KSW1 140724Z 18017G23KT 32/07 A2987 RMK A01 T03150071  RH  022%=      5-min Rain = 0
KSW1 140725Z 18016G22KT 32/07 A2987 RMK A01 T03150071  RH  022%=      5-min Rain = 0
KSW1 140726Z 17015KT 32/07 A2987 RMK A01 T03150071  RH  022%=      5-min Rain = 0
KSW1 140727Z 17016KT 32/07 A2987 RMK A01 T03150071  RH  022%=      5-min Rain = 0
KSW1 140728Z 18016KT 32/07 A2987 RMK A01 T03150071  RH  022%=      5-min Rain = 0
KSW1 140729Z 17018G23KT 32/07 A2987 RMK A01 T03150071  RH  022%=      5-min Rain = 0
KSW1 140730Z 18017KT 32/07 A2987 RMK A01 T03150071  RH  022%=      5-min Rain = 0
KSW1 140731Z 17016G21KT 32/07 A2987 RMK A01 T03150072  RH  022%=      5-min Rain = 0
KSW1 140732Z 18017KT 31/07 A2987 RMK A01 T03140072  RH  022%=      5-min Rain = 0
KSW1 140733Z 17017KT 31/07 A2987 RMK A01 T03140072  RH  022%=      5-min Rain = 0
KSW1 140734Z 18018KT 31/07 A2987 RMK A01 T03140072  RH  022%=      5-min Rain = 0
KSW1 140735Z 17018KT 31/07 A2987 RMK A01 T03140072  RH  022%=      5-min Rain = 0
KSW1 140736Z 18017KT 31/07 A2987 RMK A01 T03140072  RH  022%=      5-min Rain = 0
KSW1 140737Z 17016KT 31/07 A2987 RMK A01 T03140072  RH  022%=      5-min Rain = 0
KSW1 140738Z 18019KT 31/07 A2987 RMK A01 T03140073  RH  022%=      5-min Rain = 0
KSW1 140739Z 17017KT 31/07 A2987 RMK A01 T03140073  RH  022%=      5-min Rain = 0
KSW1 140740Z 17019G24KT 31/07 A2987 RMK A01 T03140073  RH  022%=      5-min Rain = 0
KSW1 140741Z 17017KT 31/07 A2987 RMK A01 T03140073  RH  022%=      5-min Rain = 0
KSW1 140742Z 17018G24KT 31/07 A2987 RMK A01 T03140074  RH  022%=      5-min Rain = 0
KSW1 140743Z 17018KT 31/07 A2987 RMK A01 T03140074  RH  022%=      5-min Rain = 0
KSW1 140744Z 17017KT 31/07 A2987 RMK A01 T03140074  RH  022%=      5-min Rain = 0
KSW1 140745Z 17017KT 31/07 A2987 RMK A01 T03130074  RH  023%=      5-min Rain = 0
KSW1 140746Z 17015KT 31/08 A2987 RMK A01 T03130075  RH  023%=      5-min Rain = 0
KSW1 140747Z 17018G23KT 31/08 A2987 RMK A01 T03130075  RH  023%=      5-min Rain = 0
KSW1 140748Z 17017KT 31/08 A2987 RMK A01 T03130075  RH  023%=      5-min Rain = 0
KSW1 140749Z 17015KT 31/08 A2987 RMK A01 T03130075  RH  023%=      5-min Rain = 0
KSW1 140750Z 17018KT 31/08 A2987 RMK A01 T03120076  RH  023%=      5-min Rain = 0
KSW1 140751Z 17018KT 31/08 A2987 RMK A01 T03120076  RH  023%=      5-min Rain = 0
KSW1 140752Z 18016G22KT 31/08 A2987 RMK A01 T03120076  RH  023%=      5-min Rain = 0
KSW1 140753Z 17015G20KT 31/08 A2987 RMK A01 T03120077  RH  023%=      5-min Rain = 0
KSW1 140754Z 17015KT 31/08 A2987 RMK A01 T03110077  RH  023%=      5-min Rain = 0
KSW1 140755Z 18015KT 31/08 A2987 RMK A01 T03110078  RH  023%=      5-min Rain = 0
KSW1 140756Z 18018KT 31/08 A2987 RMK A01 T03110078  RH  023%=      5-min Rain = 0
KSW1 140757Z 17017G22KT 31/08 A2987 RMK A01 T03110078  RH  023%=      5-min Rain = 0
KSW1 140758Z 17017G22KT 31/08 A2987 RMK A01 T03110079  RH  023%=      5-min Rain = 0
KSW1 140759Z 17017KT 31/08 A2987 RMK A01 T03110079  RH  024%=      5-min Rain = 0
KSW1 140800Z 18017KT 31/08 A2987 RMK A01 T03110079  RH  024%=      5-min Rain = 0
KSW1 140801Z 17018KT 31/08 A2987 RMK A01 T03110080  RH  024%=      5-min Rain = 0
KSW1 140802Z 17015KT 31/08 A2987 RMK A01 T03110080  RH  024%=      5-min Rain = 0
KSW1 140803Z 17016KT 31/08 A2987 RMK A01 T03110080  RH  024%=      5-min Rain = 0
KSW1 140804Z 17014KT 31/08 A2987 RMK A01 T03110081  RH  024%=      5-min Rain = 0
KSW1 140805Z 17016KT 31/08 A2987 RMK A01 T03100081  RH  024%=      5-min Rain = 0
KSW1 140806Z 17017KT 31/08 A2987 RMK A01 T03100081  RH  024%=      5-min Rain = 0
KSW1 140807Z 17017KT 31/08 A2987 RMK A01 T03100081  RH  024%=      5-min Rain = 0
KSW1 140808Z 17018KT 31/08 A2987 RMK A01 T03100081  RH  024%=      5-min Rain = 0
KSW1 140809Z 17017KT 31/08 A2987 RMK A01 T03100081  RH  024%=      5-min Rain = 0
KSW1 140810Z 17017KT 31/08 A2987 RMK A01 T03100082  RH  024%=      5-min Rain = 0
KSW1 140811Z 17018KT 31/08 A2987 RMK A01 T03100082  RH  024%=      5-min Rain = 0
KSW1 140812Z 17020G25KT 31/08 A2987 RMK A01 T03100083  RH  024%=      5-min Rain = 0
KSW1 140813Z 17019G25KT 31/08 A2987 RMK A01 T03100084  RH  024%=      5-min Rain = 0
KSW1 140814Z 17019G24KT 31/08 A2987 RMK A01 T03110083  RH  024%=      5-min Rain = 0
KSW1 140815Z 17019G24KT 31/08 A2987 RMK A01 T03110084  RH  024%=      5-min Rain = 0
KSW1 140816Z 17018KT 31/08 A2987 RMK A01 T03110084  RH  024%=      5-min Rain = 0
KSW1 140817Z 17014KT 31/09 A2987 RMK A01 T03110085  RH  025%=      5-min Rain = 0
KSW1 140818Z 17016G21KT 31/09 A2987 RMK A01 T03100085  RH  025%=      5-min Rain = 0
KSW1 140819Z 17019KT 31/09 A2987 RMK A01 T03090086  RH  025%=      5-min Rain = 0
KSW1 140820Z 17017KT 31/09 A2987 RMK A01 T03090087  RH  025%=      5-min Rain = 0
KSW1 140821Z 17018KT 31/09 A2987 RMK A01 T03090087  RH  025%=      5-min Rain = 0
KSW1 140822Z 17016KT 31/09 A2987 RMK A01 T03090088  RH  025%=      5-min Rain = 0
KSW1 140823Z 18017G23KT 31/09 A2987 RMK A01 T03090088  RH  025%=      5-min Rain = 0
KSW1 140824Z 17016KT 31/09 A2987 RMK A01 T03090089  RH  026%=      5-min Rain = 0
KSW1 140825Z 17018KT 31/09 A2987 RMK A01 T03080089  RH  026%=      5-min Rain = 0
KSW1 140826Z 17016KT 31/09 A2987 RMK A01 T03070090  RH  026%=      5-min Rain = 0
KSW1 140827Z 17016KT 31/09 A2987 RMK A01 T03070090  RH  026%=      5-min Rain = 0
KSW1 140828Z 17015KT 31/09 A2987 RMK A01 T03070091  RH  026%=      5-min Rain = 0
KSW1 140829Z 18014KT 31/09 A2987 RMK A01 T03070092  RH  026%=      5-min Rain = 0
KSW1 140830Z 17013KT 31/09 A2987 RMK A01 T03060092  RH  026%=      5-min Rain = 0
KSW1 140831Z 17017G22KT 31/09 A2987 RMK A01 T03060093  RH  027%=      5-min Rain = 0
KSW1 140832Z 18015KT 31/09 A2988 RMK A01 T03060093  RH  027%=      5-min Rain = 0
KSW1 140833Z 18014KT 31/09 A2988 RMK A01 T03060093  RH  027%=      5-min Rain = 0
KSW1 140834Z 18014G19KT 31/09 A2988 RMK A01 T03060094  RH  027%=      5-min Rain = 0
KSW1 140835Z 17014KT 31/09 A2988 RMK A01 T03050094  RH  027%=      5-min Rain = 0
KSW1 140836Z 18017KT 31/10 A2988 RMK A01 T03050095  RH  027%=      5-min Rain = 0
KSW1 140837Z 18017KT 31/10 A2988 RMK A01 T03050095  RH  027%=      5-min Rain = 0
KSW1 140838Z 18013KT 31/10 A2988 RMK A01 T03050095  RH  027%=      5-min Rain = 0
KSW1 140839Z 18015KT 31/10 A2988 RMK A01 T03050096  RH  027%=      5-min Rain = 0
KSW1 140840Z 18016KT 31/10 A2988 RMK A01 T03050097  RH  027%=      5-min Rain = 0
KSW1 140841Z 18014KT 31/10 A2988 RMK A01 T03050097  RH  028%=      5-min Rain = 0
KSW1 140842Z 18015KT 30/10 A2988 RMK A01 T03040097  RH  028%=      5-min Rain = 0
KSW1 140843Z 18013KT 30/10 A2988 RMK A01 T03040097  RH  028%=      5-min Rain = 0
KSW1 140844Z 18014KT 30/10 A2989 RMK A01 T03040097  RH  028%=      5-min Rain = 0
KSW1 140845Z 18011KT 30/10 A2989 RMK A01 T03040097  RH  028%=      5-min Rain = 0
KSW1 140846Z 18013KT 30/10 A2989 RMK A01 T03030097  RH  028%=      5-min Rain = 0
KSW1 140847Z 18012KT 30/10 A2989 RMK A01 T03030098  RH  028%=      5-min Rain = 0
KSW1 140848Z 19011KT 30/10 A2989 RMK A01 T03030098  RH  028%=      5-min Rain = 0
KSW1 140849Z 18012KT 30/10 A2989 RMK A01 T03030098  RH  028%=      5-min Rain = 0
KSW1 140850Z 18009KT 30/10 A299 RMK A01 T03030098  RH  028%=      5-min Rain = 0
KSW1 140851Z 18011KT 30/10 A299 RMK A01 T03020098  RH  028%=      5-min Rain = 0
KSW1 140852Z 18010KT 30/10 A299 RMK A01 T03020098  RH  028%=      5-min Rain = 0
KSW1 140853Z 19009KT 30/10 A299 RMK A01 T03020099  RH  028%=      5-min Rain = 0
KSW1 140854Z 19010KT 30/10 A299 RMK A01 T03020099  RH  028%=      5-min Rain = 0
KSW1 140855Z 18010KT 30/10 A299 RMK A01 T03020099  RH  028%=      5-min Rain = 0
KSW1 140856Z 19007KT 30/10 A2991 RMK A01 T03020099  RH  028%=      5-min Rain = 0
KSW1 140857Z 19007KT 30/10 A2991 RMK A01 T03010099  RH  029%=      5-min Rain = 0
KSW1 140858Z 19008KT 30/10 A2991 RMK A01 T03010099  RH  029%=      5-min Rain = 0
KSW1 140859Z 19007KT 30/10 A2991 RMK A01 T03010100  RH  029%=      5-min Rain = 0
KSW1 140900Z 19008KT 30/10 A2991 RMK A01 T03010100  RH  029%=      5-min Rain = 0
KSW1 140901Z 20007KT 30/10 A2991 RMK A01 T03010100  RH  029%=      5-min Rain = 0
KSW1 140902Z 20005KT 30/10 A2992 RMK A01 T03010100  RH  029%=      5-min Rain = 0
KSW1 140903Z 20005KT 30/10 A2992 RMK A01 T03010100  RH  029%=      5-min Rain = 0
KSW1 140904Z 20004KT 30/10 A2992 RMK A01 T03000100  RH  029%=      5-min Rain = 0
KSW1 140905Z 22004KT 30/10 A2992 RMK A01 T03000100  RH  029%=      5-min Rain = 0
KSW1 140906Z 22005KT 30/10 A2992 RMK A01 T03000101  RH  029%=      5-min Rain = 0
KSW1 140907Z 24003KT 30/10 A2993 RMK A01 T03000101  RH  029%=      5-min Rain = 0
KSW1 140908Z 24003KT 30/10 A2993 RMK A01 T03000101  RH  029%=      5-min Rain = 0
KSW1 140909Z 26003KT 30/10 A2993 RMK A01 T02990101  RH  029%=      5-min Rain = 0
KSW1 140910Z 27002KT 30/10 A2993 RMK A01 T02990101  RH  029%=      5-min Rain = 0
KSW1 140911Z 27002KT 30/10 A2993 RMK A01 T02980101  RH  029%=      5-min Rain = 0
KSW1 140912Z 26003KT 30/10 A2993 RMK A01 T02980101  RH  029%=      5-min Rain = 0
KSW1 140913Z 21002KT 30/10 A2993 RMK A01 T02980101  RH  029%=      5-min Rain = 0
KSW1 140914Z 21002KT 30/10 A2993 RMK A01 T02980101  RH  029%=      5-min Rain = 0
KSW1 140915Z 18002KT 30/10 A2993 RMK A01 T02980101  RH  029%=      5-min Rain = 0
KSW1 140916Z 19004KT 30/10 A2993 RMK A01 T02980101  RH  029%=      5-min Rain = 0
KSW1 140917Z 19004KT 30/10 A2993 RMK A01 T02970101  RH  030%=      5-min Rain = 0
KSW1 140918Z 18004KT 30/10 A2993 RMK A01 T02970101  RH  030%=      5-min Rain = 0
KSW1 140919Z 17005KT 30/10 A2993 RMK A01 T02960103  RH  030%=      5-min Rain = 0
KSW1 140920Z 17007KT 30/10 A2993 RMK A01 T02950103  RH  030%=      5-min Rain = 0
KSW1 140921Z 16006KT 30/10 A2992 RMK A01 T02950102  RH  030%=      5-min Rain = 0
KSW1 140922Z 16007KT 30/10 A2992 RMK A01 T02950103  RH  030%=      5-min Rain = 0
KSW1 140923Z 16007KT 29/10 A2992 RMK A01 T02940103  RH  030%=      5-min Rain = 0
KSW1 140924Z 16007KT 29/10 A2992 RMK A01 T02940102  RH  030%=      5-min Rain = 0
KSW1 140925Z 17007KT 29/10 A2992 RMK A01 T02940102  RH  030%=      5-min Rain = 0
KSW1 140926Z 17008KT 29/10 A2992 RMK A01 T02940102  RH  030%=      5-min Rain = 0
KSW1 140927Z 18006KT 29/10 A2993 RMK A01 T02940102  RH  030%=      5-min Rain = 0
KSW1 140928Z 18004KT 30/10 A2993 RMK A01 T02950102  RH  030%=      5-min Rain = 0
KSW1 140929Z 18003KT 30/10 A2993 RMK A01 T02950102  RH  030%=      5-min Rain = 0
KSW1 140930Z 18002KT 30/10 A2993 RMK A01 T02950102  RH  030%=      5-min Rain = 0
KSW1 140931Z 20002KT 30/10 A2993 RMK A01 T02950102  RH  030%=      5-min Rain = 0
KSW1 140932Z 22002KT 30/10 A2994 RMK A01 T02960102  RH  030%=      5-min Rain = 0
KSW1 140933Z 28002KT 30/10 A2994 RMK A01 T02960102  RH  030%=      5-min Rain = 0
KSW1 140934Z 31003KT 30/10 A2994 RMK A01 T02960102  RH  030%=      5-min Rain = 0
KSW1 140935Z 31004KT 30/10 A2994 RMK A01 T02950102  RH  030%=      5-min Rain = 0
KSW1 140936Z 31005KT 30/10 A2995 RMK A01 T02950102  RH  030%=      5-min Rain = 0
KSW1 140937Z 32006KT 29/10 A2995 RMK A01 T02940102  RH  030%=      5-min Rain = 0
KSW1 140938Z 31005KT 29/10 A2995 RMK A01 T02930102  RH  031%=      5-min Rain = 0
KSW1 140939Z 31005KT 29/10 A2995 RMK A01 T02930103  RH  031%=      5-min Rain = 0
KSW1 140940Z 31005KT 29/10 A2995 RMK A01 T02930103  RH  031%=      5-min Rain = 0
KSW1 140941Z 31004KT 29/10 A2995 RMK A01 T02930103  RH  031%=      5-min Rain = 0
KSW1 140942Z 27002KT 29/10 A2995 RMK A01 T02920102  RH  031%=      5-min Rain = 0
KSW1 140943Z 24001KT 29/10 A2995 RMK A01 T02920103  RH  031%=      5-min Rain = 0
KSW1 140944Z 26002KT 29/10 A2994 RMK A01 T02920102  RH  031%=      5-min Rain = 0
KSW1 140945Z 18003KT 29/10 A2994 RMK A01 T02930103  RH  031%=      5-min Rain = 0
KSW1 140946Z 15004KT 30/10 A2994 RMK A01 T02950103  RH  030%=      5-min Rain = 0
KSW1 140947Z 16006KT 29/11 A2993 RMK A01 T02940105  RH  031%=      5-min Rain = 0
KSW1 140948Z 15007KT 29/10 A2993 RMK A01 T02920104  RH  031%=      5-min Rain = 0
KSW1 140949Z 16007KT 29/10 A2993 RMK A01 T02930104  RH  031%=      5-min Rain = 0
KSW1 140950Z 16007KT 29/10 A2993 RMK A01 T02930104  RH  031%=      5-min Rain = 0
KSW1 140951Z 16008KT 29/10 A2993 RMK A01 T02930104  RH  031%=      5-min Rain = 0
KSW1 140952Z 17010KT 29/10 A2993 RMK A01 T02920104  RH  031%=      5-min Rain = 0
KSW1 140953Z 17009KT 29/10 A2993 RMK A01 T02940104  RH  031%=      5-min Rain = 0
KSW1 140954Z 16010KT 30/10 A2993 RMK A01 T02950104  RH  031%=      5-min Rain = 0
KSW1 140955Z 16012KT 30/11 A2993 RMK A01 T02960105  RH  031%=      5-min Rain = 0
KSW1 140956Z 17010KT 30/11 A2993 RMK A01 T02960105  RH  031%=      5-min Rain = 0
KSW1 140957Z 16010KT 30/11 A2993 RMK A01 T02960105  RH  031%=      5-min Rain = 0
KSW1 140958Z 16010KT 30/11 A2993 RMK A01 T02960105  RH  031%=      5-min Rain = 0
KSW1 140959Z 15008KT 30/11 A2993 RMK A01 T02950105  RH  031%=      5-min Rain = 0
KSW1 141000Z 16008KT 29/11 A2993 RMK A01 T02940105  RH  031%=      5-min Rain = 0
KSW1 141001Z 15009KT 29/11 A2993 RMK A01 T02930105  RH  031%=      5-min Rain = 0
KSW1 141002Z 15008KT 29/11 A2993 RMK A01 T02920105  RH  031%=      5-min Rain = 0
KSW1 141003Z 15007KT 29/11 A2993 RMK A01 T02920106  RH  031%=      5-min Rain = 0
KSW1 141004Z 16007KT 29/11 A2993 RMK A01 T02920106  RH  031%=      5-min Rain = 0
KSW1 141005Z 16006KT 29/11 A2994 RMK A01 T02920106  RH  032%=      5-min Rain = 0
KSW1 141006Z 17005KT 29/11 A2994 RMK A01 T02920106  RH  032%=      5-min Rain = 0
KSW1 141007Z 17004KT 29/11 A2994 RMK A01 T02910106  RH  032%=      5-min Rain = 0
KSW1 141008Z 17004KT 29/11 A2994 RMK A01 T02910106  RH  032%=      5-min Rain = 0
KSW1 141009Z 16005KT 29/11 A2994 RMK A01 T02900107  RH  032%=      5-min Rain = 0
KSW1 141010Z 16006KT 29/11 A2994 RMK A01 T02900107  RH  032%=      5-min Rain = 0
KSW1 141011Z 16006KT 29/11 A2993 RMK A01 T02890107  RH  032%=      5-min Rain = 0
KSW1 141012Z 16007KT 29/11 A2993 RMK A01 T02890108  RH  032%=      5-min Rain = 0
KSW1 141013Z 17007KT 29/11 A2993 RMK A01 T02880108  RH  033%=      5-min Rain = 0
KSW1 141014Z 17007KT 29/11 A2993 RMK A01 T02880108  RH  033%=      5-min Rain = 0
KSW1 141015Z 17007KT 29/11 A2993 RMK A01 T02880108  RH  033%=      5-min Rain = 0
KSW1 141016Z 18008KT 29/11 A2993 RMK A01 T02880108  RH  033%=      5-min Rain = 0
KSW1 141017Z 18008KT 29/11 A2993 RMK A01 T02880108  RH  033%=      5-min Rain = 0
KSW1 141018Z 18008KT 29/11 A2993 RMK A01 T02870108  RH  033%=      5-min Rain = 0
KSW1 141019Z 19008KT 29/11 A2993 RMK A01 T02880108  RH  033%=      5-min Rain = 0
KSW1 141020Z 19007KT 29/11 A2993 RMK A01 T02880109  RH  033%=      5-min Rain = 0
KSW1 141021Z 19008KT 29/11 A2993 RMK A01 T02880108  RH  033%=      5-min Rain = 0
KSW1 141022Z 20008KT 29/11 A2993 RMK A01 T02880109  RH  033%=      5-min Rain = 0
KSW1 141023Z 19009KT 29/11 A2993 RMK A01 T02880110  RH  033%=      5-min Rain = 0
KSW1 141024Z 19009KT 29/11 A2993 RMK A01 T02880110  RH  033%=      5-min Rain = 0
KSW1 141025Z 19010KT 29/11 A2993 RMK A01 T02880111  RH  033%=      5-min Rain = 0
KSW1 141026Z 19011KT 29/11 A2993 RMK A01 T02880112  RH  033%=      5-min Rain = 0
KSW1 141027Z 20011KT 29/11 A2993 RMK A01 T02890112  RH  033%=      5-min Rain = 0
KSW1 141028Z 19010KT 29/11 A2993 RMK A01 T02890111  RH  033%=      5-min Rain = 0
KSW1 141029Z 19012KT 29/11 A2993 RMK A01 T02890111  RH  033%=      5-min Rain = 0
KSW1 141030Z 19011KT 29/11 A2993 RMK A01 T02890112  RH  033%=      5-min Rain = 0
KSW1 141031Z 19011KT 29/11 A2993 RMK A01 T02900112  RH  033%=      5-min Rain = 0
KSW1 141032Z 19010KT 29/11 A2993 RMK A01 T02900113  RH  033%=      5-min Rain = 0
KSW1 141033Z 20010KT 29/11 A2993 RMK A01 T02900113  RH  033%=      5-min Rain = 0
KSW1 141034Z 19011KT 29/11 A2993 RMK A01 T02900113  RH  033%=      5-min Rain = 0
KSW1 141035Z 20010KT 29/11 A2993 RMK A01 T02900113  RH  034%=      5-min Rain = 0
KSW1 141036Z 20010KT 29/11 A2993 RMK A01 T02900114  RH  034%=      5-min Rain = 0
KSW1 141037Z 19012KT 29/11 A2993 RMK A01 T02910114  RH  034%=      5-min Rain = 0
KSW1 141038Z 19011KT 29/11 A2993 RMK A01 T02910114  RH  034%=      5-min Rain = 0
KSW1 141039Z 20012KT 29/12 A2993 RMK A01 T02910115  RH  034%=      5-min Rain = 0
KSW1 141040Z 19011KT 29/12 A2993 RMK A01 T02920115  RH  033%=      5-min Rain = 0
KSW1 141041Z 19009KT 29/12 A2993 RMK A01 T02920115  RH  033%=      5-min Rain = 0
KSW1 141042Z 19009KT 29/12 A2993 RMK A01 T02920116  RH  034%=      5-min Rain = 0
KSW1 141043Z 19012KT 29/12 A2993 RMK A01 T02920116  RH  034%=      5-min Rain = 0
KSW1 141044Z 19013KT 29/12 A2993 RMK A01 T02920116  RH  034%=      5-min Rain = 0
KSW1 141045Z 19014KT 29/12 A2993 RMK A01 T02930117  RH  034%=      5-min Rain = 0
KSW1 141046Z 19013KT 29/12 A2993 RMK A01 T02930117  RH  034%=      5-min Rain = 0
KSW1 141047Z 19014KT 29/12 A2993 RMK A01 T02930118  RH  034%=      5-min Rain = 0
KSW1 141048Z 19015KT 29/12 A2993 RMK A01 T02940118  RH  034%=      5-min Rain = 0
KSW1 141049Z 19013KT 29/12 A2993 RMK A01 T02940118  RH  034%=      5-min Rain = 0
KSW1 141050Z 20013KT 29/12 A2993 RMK A01 T02940118  RH  034%=      5-min Rain = 0
KSW1 141051Z 19015KT 29/12 A2993 RMK A01 T02930118  RH  034%=      5-min Rain = 0
KSW1 141052Z 19014KT 29/12 A2993 RMK A01 T02930118  RH  034%=      5-min Rain = 0
KSW1 141053Z 19012KT 29/12 A2992 RMK A01 T02920118  RH  034%=      5-min Rain = 0
KSW1 141054Z 19013KT 29/12 A2992 RMK A01 T02920118  RH  034%=      5-min Rain = 0
KSW1 141055Z 19013KT 29/12 A2992 RMK A01 T02910119  RH  034%=      5-min Rain = 0
KSW1 141056Z 19013KT 29/12 A2992 RMK A01 T02910119  RH  035%=      5-min Rain = 0
KSW1 141057Z 18014KT 29/12 A2992 RMK A01 T02910119  RH  035%=      5-min Rain = 0
KSW1 141058Z 18015KT 29/12 A2992 RMK A01 T02910119  RH  035%=      5-min Rain = 0
KSW1 141059Z 18014KT 29/12 A2992 RMK A01 T02910119  RH  035%=      5-min Rain = 0
KSW1 141100Z 18014KT 29/12 A2992 RMK A01 T02920120  RH  035%=      5-min Rain = 0
KSW1 141101Z 18014KT 29/12 A2992 RMK A01 T02920120  RH  035%=      5-min Rain = 0
KSW1 141102Z 18015G20KT 29/12 A2992 RMK A01 T02910120  RH  035%=      5-min Rain = 0
KSW1 141103Z 18011KT 29/12 A2992 RMK A01 T02920120  RH  035%=      5-min Rain = 0
KSW1 141104Z 18012KT 29/12 A2993 RMK A01 T02920120  RH  035%=      5-min Rain = 0
KSW1 141105Z 18011KT 29/12 A2993 RMK A01 T02920121  RH  035%=      5-min Rain = 0
KSW1 141106Z 18011KT 29/12 A2993 RMK A01 T02920121  RH  035%=      5-min Rain = 0
KSW1 141107Z 18011KT 29/12 A2993 RMK A01 T02910121  RH  035%=      5-min Rain = 0
KSW1 141108Z 17009KT 29/12 A2993 RMK A01 T02910121  RH  035%=      5-min Rain = 0
KSW1 141109Z 18011KT 29/12 A2993 RMK A01 T02910121  RH  035%=      5-min Rain = 0
KSW1 141110Z 18012KT 29/12 A2993 RMK A01 T02900121  RH  035%=      5-min Rain = 0
KSW1 141111Z 18012KT 29/12 A2993 RMK A01 T02900121  RH  035%=      5-min Rain = 0
KSW1 141112Z 18011KT 29/12 A2993 RMK A01 T02910121  RH  035%=      5-min Rain = 0
KSW1 141113Z 18011KT 29/12 A2993 RMK A01 T02910121  RH  035%=      5-min Rain = 0
KSW1 141114Z 18008KT 29/12 A2993 RMK A01 T02910121  RH  035%=      5-min Rain = 0
KSW1 141115Z 18010KT 29/12 A2993 RMK A01 T02900121  RH  035%=      5-min Rain = 0
KSW1 141116Z 18009KT 29/12 A2993 RMK A01 T02900122  RH  035%=      5-min Rain = 0
KSW1 141117Z 18008KT 29/12 A2993 RMK A01 T02890121  RH  035%=      5-min Rain = 0
KSW1 141118Z 19009KT 29/12 A2993 RMK A01 T02890122  RH  036%=      5-min Rain = 0
KSW1 141119Z 19008KT 29/12 A2993 RMK A01 T02890122  RH  036%=      5-min Rain = 0
KSW1 141120Z 20008KT 29/12 A2993 RMK A01 T02880122  RH  036%=      5-min Rain = 0
KSW1 141121Z 19010KT 29/12 A2993 RMK A01 T02880122  RH  036%=      5-min Rain = 0
KSW1 141122Z 19011KT 29/12 A2993 RMK A01 T02880122  RH  036%=      5-min Rain = 0
KSW1 141123Z 19011KT 29/12 A2993 RMK A01 T02880123  RH  036%=      5-min Rain = 0
KSW1 141124Z 19011KT 29/12 A2993 RMK A01 T02880123  RH  036%=      5-min Rain = 0
KSW1 141125Z 18011KT 29/12 A2993 RMK A01 T02880123  RH  036%=      5-min Rain = 0
KSW1 141126Z 18010KT 29/12 A2993 RMK A01 T02880123  RH  036%=      5-min Rain = 0
KSW1 141127Z 18012KT 29/12 A2993 RMK A01 T02880123  RH  036%=      5-min Rain = 0
KSW1 141128Z 18011KT 29/12 A2993 RMK A01 T02880124  RH  036%=      5-min Rain = 0
KSW1 141129Z 18011KT 29/12 A2993 RMK A01 T02880124  RH  036%=      5-min Rain = 0
KSW1 141130Z 18013KT 29/13 A2993 RMK A01 T02880125  RH  037%=      5-min Rain = 0
KSW1 141131Z 18012KT 29/13 A2993 RMK A01 T02880125  RH  037%=      5-min Rain = 0
KSW1 141132Z 18012G17KT 29/13 A2993 RMK A01 T02880125  RH  037%=      5-min Rain = 0
KSW1 141133Z 18010KT 29/13 A2993 RMK A01 T02880125  RH  037%=      5-min Rain = 0
KSW1 141134Z 18012KT 29/13 A2993 RMK A01 T02880126  RH  037%=      5-min Rain = 0
KSW1 141135Z 18012KT 29/13 A2993 RMK A01 T02880126  RH  037%=      5-min Rain = 0
KSW1 141136Z 18014KT 29/13 A2993 RMK A01 T02880127  RH  037%=      5-min Rain = 0
KSW1 141137Z 19013KT 29/13 A2993 RMK A01 T02880127  RH  037%=      5-min Rain = 0
KSW1 141138Z 19015KT 29/13 A2993 RMK A01 T02880127  RH  037%=      5-min Rain = 0
KSW1 141139Z 19013KT 29/13 A2993 RMK A01 T02880127  RH  037%=      5-min Rain = 0
KSW1 141140Z 19011KT 29/13 A2993 RMK A01 T02880128  RH  037%=      5-min Rain = 0
KSW1 141141Z 19011KT 29/13 A2993 RMK A01 T02880128  RH  037%=      5-min Rain = 0
KSW1 141142Z 20012KT 29/13 A2993 RMK A01 T02890129  RH  037%=      5-min Rain = 0
KSW1 141143Z 19012KT 29/13 A2993 RMK A01 T02880129  RH  037%=      5-min Rain = 0
KSW1 141144Z 19012KT 29/13 A2993 RMK A01 T02890129  RH  037%=      5-min Rain = 0
KSW1 141145Z 20011G16KT 29/13 A2993 RMK A01 T02880129  RH  037%=      5-min Rain = 0
KSW1 141146Z 20013KT 29/13 A2993 RMK A01 T02880130  RH  038%=      5-min Rain = 0
KSW1 141147Z 20013KT 29/13 A2993 RMK A01 T02880130  RH  038%=      5-min Rain = 0
KSW1 141148Z 20011KT 29/13 A2993 RMK A01 T02890130  RH  038%=      5-min Rain = 0
KSW1 141149Z 20012G17KT 29/13 A2993 RMK A01 T02880131  RH  038%=      5-min Rain = 0
KSW1 141150Z 20012KT 29/13 A2993 RMK A01 T02870131  RH  038%=      5-min Rain = 0
KSW1 141151Z 21012KT 29/13 A2993 RMK A01 T02880132  RH  038%=      5-min Rain = 0
KSW1 141152Z 20014KT 29/13 A2993 RMK A01 T02880132  RH  038%=      5-min Rain = 0
KSW1 141153Z 20013KT 29/13 A2993 RMK A01 T02880131  RH  038%=      5-min Rain = 0
KSW1 141154Z 20014KT 29/13 A2993 RMK A01 T02880131  RH  038%=      5-min Rain = 0
KSW1 141155Z 20013KT 29/13 A2993 RMK A01 T02880131  RH  038%=      5-min Rain = 0
KSW1 141156Z 20013KT 29/13 A2993 RMK A01 T02890131  RH  038%=      5-min Rain = 0
KSW1 141157Z 20013KT 29/13 A2993 RMK A01 T02880131  RH  038%=      5-min Rain = 0
KSW1 141158Z 20013KT 29/13 A2993 RMK A01 T02880132  RH  038%=      5-min Rain = 0
KSW1 141159Z 21014KT 29/13 A2993 RMK A01 T02880132  RH  038%=      5-min Rain = 0
KSW1 141200Z 20012KT 29/13 A2993 RMK A01 T02880132  RH  038%=      5-min Rain = 0
KSW1 141201Z 21012KT 29/13 A2993 RMK A01 T02880133  RH  038%=      5-min Rain = 0
KSW1 141202Z 21013KT 29/13 A2993 RMK A01 T02870133  RH  039%=      5-min Rain = 0
KSW1 141203Z 21013KT 29/13 A2993 RMK A01 T02870132  RH  039%=      5-min Rain = 0
KSW1 141204Z 20013KT 29/13 A2993 RMK A01 T02870133  RH  039%=      5-min Rain = 0
KSW1 141205Z 21011KT 29/13 A2993 RMK A01 T02870133  RH  039%=      5-min Rain = 0
KSW1 141206Z 20012KT 29/13 A2993 RMK A01 T02870133  RH  039%=      5-min Rain = 0
KSW1 141207Z 19014KT 29/13 A2993 RMK A01 T02870134  RH  039%=      5-min Rain = 0
KSW1 141208Z 19013KT 29/13 A2993 RMK A01 T02870133  RH  039%=      5-min Rain = 0
KSW1 141209Z 18014KT 29/13 A2992 RMK A01 T02870133  RH  039%=      5-min Rain = 0
KSW1 141210Z 18015KT 29/13 A2992 RMK A01 T02870133  RH  039%=      5-min Rain = 0
KSW1 141211Z 18015KT 29/13 A2992 RMK A01 T02870133  RH  039%=      5-min Rain = 0
KSW1 141212Z 17015KT 29/13 A2992 RMK A01 T02870133  RH  039%=      5-min Rain = 0
KSW1 141213Z 17016KT 29/13 A2992 RMK A01 T02860134  RH  039%=      5-min Rain = 0
KSW1 141214Z 17014KT 29/13 A2992 RMK A01 T02860134  RH  039%=      5-min Rain = 0
KSW1 141215Z 17015KT 29/13 A2992 RMK A01 T02850134  RH  039%=      5-min Rain = 0
KSW1 141216Z 17015KT 29/13 A2992 RMK A01 T02850134  RH  040%=      5-min Rain = 0
KSW1 141217Z 17016KT 28/13 A2992 RMK A01 T02840134  RH  040%=      5-min Rain = 0
KSW1 141218Z 17017KT 28/14 A2992 RMK A01 T02840135  RH  040%=      5-min Rain = 0
KSW1 141219Z 17016KT 29/14 A2992 RMK A01 T02850135  RH  040%=      5-min Rain = 0
KSW1 141220Z 17016G21KT 29/14 A2992 RMK A01 T02850136  RH  040%=      5-min Rain = 0
KSW1 141221Z 17016KT 29/14 A2992 RMK A01 T02850136  RH  040%=      5-min Rain = 0
KSW1 141222Z 17015KT 29/14 A2992 RMK A01 T02860136  RH  040%=      5-min Rain = 0
KSW1 141223Z 18014KT 29/14 A2992 RMK A01 T02860137  RH  040%=      5-min Rain = 0
KSW1 141224Z 18012G17KT 29/14 A2993 RMK A01 T02850137  RH  040%=      5-min Rain = 0
KSW1 141225Z 17015KT 29/14 A2993 RMK A01 T02850137  RH  040%=      5-min Rain = 0
KSW1 141226Z 17010KT 29/14 A2993 RMK A01 T02850137  RH  040%=      5-min Rain = 0
KSW1 141227Z 17011KT 29/14 A2993 RMK A01 T02850137  RH  040%=      5-min Rain = 0
KSW1 141228Z 17013KT 28/14 A2993 RMK A01 T02840138  RH  041%=      5-min Rain = 0
KSW1 141229Z 18014KT 28/14 A2993 RMK A01 T02840138  RH  041%=      5-min Rain = 0
KSW1 141230Z 18013G18KT 28/14 A2993 RMK A01 T02840138  RH  041%=      5-min Rain = 0
KSW1 141231Z 18012KT 28/14 A2993 RMK A01 T02840138  RH  041%=      5-min Rain = 0
KSW1 141232Z 18013KT 28/14 A2993 RMK A01 T02840139  RH  041%=      5-min Rain = 0
KSW1 141233Z 18010KT 28/14 A2993 RMK A01 T02840139  RH  041%=      5-min Rain = 0
KSW1 141234Z 18013KT 28/14 A2993 RMK A01 T02840139  RH  041%=      5-min Rain = 0
KSW1 141235Z 18012KT 28/14 A2993 RMK A01 T02830139  RH  041%=      5-min Rain = 0
KSW1 141236Z 18014KT 28/14 A2993 RMK A01 T02830139  RH  041%=      5-min Rain = 0
KSW1 141237Z 18012KT 28/14 A2993 RMK A01 T02830139  RH  041%=      5-min Rain = 0
KSW1 141238Z 18010KT 28/14 A2993 RMK A01 T02830139  RH  041%=      5-min Rain = 0
KSW1 141239Z 18011KT 28/14 A2993 RMK A01 T02830140  RH  041%=      5-min Rain = 0
KSW1 141240Z 18011KT 28/14 A2993 RMK A01 T02840140  RH  041%=      5-min Rain = 0
KSW1 141241Z 18011KT 28/14 A2993 RMK A01 T02840140  RH  041%=      5-min Rain = 0
KSW1 141242Z 18012KT 28/14 A2993 RMK A01 T02830140  RH  041%=      5-min Rain = 0
KSW1 141243Z 18013KT 28/14 A2993 RMK A01 T02830140  RH  041%=      5-min Rain = 0
KSW1 141244Z 18012KT 28/14 A2993 RMK A01 T02830140  RH  041%=      5-min Rain = 0
KSW1 141245Z 18015KT 28/14 A2993 RMK A01 T02830140  RH  041%=      5-min Rain = 0
KSW1 141246Z 18015KT 28/14 A2993 RMK A01 T02840140  RH  041%=      5-min Rain = 0
KSW1 141247Z 18012KT 28/14 A2993 RMK A01 T02840140  RH  041%=      5-min Rain = 0
KSW1 141248Z 18014KT 28/14 A2993 RMK A01 T02840140  RH  041%=      5-min Rain = 0
KSW1 141249Z 18011KT 28/14 A2993 RMK A01 T02840141  RH  041%=      5-min Rain = 0
KSW1 141250Z 18014KT 28/14 A2993 RMK A01 T02840141  RH  042%=      5-min Rain = 0
KSW1 141251Z 18014KT 28/14 A2993 RMK A01 T02840141  RH  042%=      5-min Rain = 0
KSW1 141252Z 18013KT 29/14 A2993 RMK A01 T02850142  RH  042%=      5-min Rain = 0
KSW1 141253Z 18017KT 29/14 A2993 RMK A01 T02850142  RH  041%=      5-min Rain = 0
KSW1 141254Z 18014KT 29/14 A2993 RMK A01 T02860142  RH  041%=      5-min Rain = 0
KSW1 141255Z 19014KT 29/14 A2993 RMK A01 T02860142  RH  041%=      5-min Rain = 0
KSW1 141256Z 19011KT 29/14 A2993 RMK A01 T02860142  RH  041%=      5-min Rain = 0
KSW1 141257Z 18013KT 29/14 A2993 RMK A01 T02860142  RH  041%=      5-min Rain = 0
KSW1 141258Z 19014KT 29/14 A2993 RMK A01 T02870142  RH  041%=      5-min Rain = 0
KSW1 141259Z 19013KT 29/14 A2993 RMK A01 T02880143  RH  041%=      5-min Rain = 0
KSW1 141300Z 18013KT 29/14 A2993 RMK A01 T02890143  RH  041%=      5-min Rain = 0
KSW1 141301Z 18014G19KT 29/14 A2993 RMK A01 T02890143  RH  041%=      5-min Rain = 0
KSW1 141302Z 18013KT 29/14 A2993 RMK A01 T02890143  RH  041%=      5-min Rain = 0
KSW1 141303Z 18016KT 29/14 A2993 RMK A01 T02880143  RH  041%=      5-min Rain = 0
KSW1 141304Z 18014G19KT 29/14 A2993 RMK A01 T02880143  RH  041%=      5-min Rain = 0
KSW1 141305Z 18014KT 29/14 A2993 RMK A01 T02870143  RH  041%=      5-min Rain = 0
KSW1 141306Z 18016KT 29/14 A2992 RMK A01 T02870144  RH  041%=      5-min Rain = 0
KSW1 141307Z 18014KT 29/14 A2992 RMK A01 T02870144  RH  041%=      5-min Rain = 0
KSW1 141308Z 18016KT 29/14 A2992 RMK A01 T02870144  RH  042%=      5-min Rain = 0
KSW1 141309Z 18018KT 29/14 A2992 RMK A01 T02870144  RH  042%=      5-min Rain = 0
KSW1 141310Z 18018KT 29/14 A2992 RMK A01 T02870144  RH  042%=      5-min Rain = 0
KSW1 141311Z 18013KT 29/14 A2992 RMK A01 T02870144  RH  042%=      5-min Rain = 0
KSW1 141312Z 18013KT 29/14 A2992 RMK A01 T02870144  RH  042%=      5-min Rain = 0
KSW1 141313Z 18015G20KT 29/14 A2992 RMK A01 T02870144  RH  042%=      5-min Rain = 0
KSW1 141314Z 17017KT 29/14 A2992 RMK A01 T02870144  RH  042%=      5-min Rain = 0
KSW1 141315Z 18017KT 29/14 A2992 RMK A01 T02870144  RH  042%=      5-min Rain = 0
KSW1 141316Z 18017KT 29/14 A2992 RMK A01 T02870144  RH  042%=      5-min Rain = 0
KSW1 141317Z 18014KT 29/14 A2992 RMK A01 T02870144  RH  042%=      5-min Rain = 0
KSW1 141318Z 18014G19KT 29/14 A2992 RMK A01 T02870144  RH  042%=      5-min Rain = 0
KSW1 141319Z 18016KT 29/15 A2992 RMK A01 T02870145  RH  042%=      5-min Rain = 0
KSW1 141320Z 18015KT 29/14 A2992 RMK A01 T02870144  RH  042%=      5-min Rain = 0
KSW1 141321Z 18015KT 29/14 A2992 RMK A01 T02870144  RH  042%=      5-min Rain = 0
KSW1 141322Z 18013KT 29/14 A2993 RMK A01 T02870144  RH  042%=      5-min Rain = 0
KSW1 141323Z 18014G19KT 29/15 A2993 RMK A01 T02870145  RH  042%=      5-min Rain = 0
KSW1 141324Z 18015KT 29/14 A2993 RMK A01 T02870144  RH  042%=      5-min Rain = 0
KSW1 141325Z 18013G19KT 29/15 A2993 RMK A01 T02870145  RH  042%=      5-min Rain = 0
KSW1 141326Z 18016KT 29/15 A2993 RMK A01 T02880145  RH  042%=      5-min Rain = 0
KSW1 141327Z 18016KT 29/15 A2993 RMK A01 T02880145  RH  042%=      5-min Rain = 0
KSW1 141328Z 17014G20KT 29/15 A2993 RMK A01 T02880145  RH  042%=      5-min Rain = 0
KSW1 141329Z 18017KT 29/15 A2993 RMK A01 T02880145  RH  041%=      5-min Rain = 0
KSW1 141330Z 18015G20KT 29/15 A2993 RMK A01 T02890145  RH  041%=      5-min Rain = 0
KSW1 141331Z 18015G20KT 29/15 A2993 RMK A01 T02890145  RH  041%=      5-min Rain = 0
KSW1 141332Z 18014KT 29/15 A2993 RMK A01 T02900145  RH  041%=      5-min Rain = 0
KSW1 141333Z 18016KT 29/15 A2993 RMK A01 T02900145  RH  041%=      5-min Rain = 0
KSW1 141334Z 18018KT 29/15 A2993 RMK A01 T02910145  RH  041%=      5-min Rain = 0
KSW1 141335Z 18017KT 29/15 A2993 RMK A01 T02910145  RH  041%=      5-min Rain = 0
KSW1 141336Z 18020KT 29/15 A2993 RMK A01 T02910145  RH  041%=      5-min Rain = 0
KSW1 141337Z 18016G22KT 29/15 A2993 RMK A01 T02920145  RH  041%=      5-min Rain = 0
KSW1 141338Z 18015G22KT 29/15 A2993 RMK A01 T02920145  RH  041%=      5-min Rain = 0
KSW1 141339Z 18016KT 29/15 A2993 RMK A01 T02920145  RH  041%=      5-min Rain = 0
KSW1 141340Z 18015KT 29/15 A2993 RMK A01 T02930146  RH  041%=      5-min Rain = 0
KSW1 141341Z 18015G21KT 29/15 A2993 RMK A01 T02920146  RH  041%=      5-min Rain = 0
KSW1 141342Z 18018KT 29/15 A2993 RMK A01 T02930146  RH  041%=      5-min Rain = 0
KSW1 141343Z 18016G23KT 29/15 A2993 RMK A01 T02940146  RH  041%=      5-min Rain = 0
KSW1 141344Z 18021KT 29/15 A2993 RMK A01 T02940146  RH  040%=      5-min Rain = 0
KSW1 141345Z 18020G26KT 30/15 A2993 RMK A01 T02950146  RH  040%=      5-min Rain = 0
KSW1 141346Z 18021KT 30/15 A2993 RMK A01 T02950146  RH  040%=      5-min Rain = 0
KSW1 141347Z 18021KT 30/15 A2993 RMK A01 T02950145  RH  040%=      5-min Rain = 0
KSW1 141348Z 18020G25KT 30/15 A2993 RMK A01 T02960146  RH  040%=      5-min Rain = 0
KSW1 141349Z 17019G24KT 30/15 A2993 RMK A01 T02970146  RH  040%=      5-min Rain = 0
KSW1 141350Z 18019KT 30/15 A2993 RMK A01 T02990147  RH  040%=      5-min Rain = 0
KSW1 141351Z 18020G25KT 30/15 A2993 RMK A01 T03000147  RH  039%=      5-min Rain = 0
KSW1 141352Z 18016KT 30/15 A2993 RMK A01 T03010147  RH  039%=      5-min Rain = 0
KSW1 141353Z 18019G29KT 30/15 A2993 RMK A01 T03030147  RH  039%=      5-min Rain = 0
KSW1 141354Z 18022G27KT 30/15 A2993 RMK A01 T03040146  RH  038%=      5-min Rain = 0
KSW1 141355Z 18021G26KT 30/15 A2993 RMK A01 T03030146  RH  039%=      5-min Rain = 0
KSW1 141356Z 18020KT 30/15 A2993 RMK A01 T03020146  RH  039%=      5-min Rain = 0
KSW1 141357Z 18016G22KT 30/15 A2993 RMK A01 T03030147  RH  039%=      5-min Rain = 0
KSW1 141358Z 18019KT 31/15 A2993 RMK A01 T03050147  RH  038%=      5-min Rain = 0
KSW1 141359Z 19019G24KT 31/15 A2993 RMK A01 T03060147  RH  038%=      5-min Rain = 0
KSW1 141400Z 18019KT 31/15 A2993 RMK A01 T03070147  RH  038%=      5-min Rain = 0
KSW1 141401Z 19022KT 31/15 A2993 RMK A01 T03080147  RH  037%=      5-min Rain = 0
KSW1 141402Z 18021KT 31/15 A2993 RMK A01 T03080146  RH  037%=      5-min Rain = 0
KSW1 141403Z 18023KT 31/15 A2993 RMK A01 T03080145  RH  037%=      5-min Rain = 0
KSW1 141404Z 18021G27KT 31/14 A2993 RMK A01 T03080144  RH  037%=      5-min Rain = 0
KSW1 141405Z 18024G29KT 31/15 A2993 RMK A01 T03080145  RH  037%=      5-min Rain = 0
KSW1 141406Z 17023KT 31/14 A2993 RMK A01 T03070144  RH  037%=      5-min Rain = 0
KSW1 141407Z 18024G29KT 31/14 A2993 RMK A01 T03070144  RH  037%=      5-min Rain = 0
KSW1 141408Z 18026KT 31/14 A2993 RMK A01 T03080143  RH  037%=      5-min Rain = 0
KSW1 141409Z 18024KT 31/14 A2993 RMK A01 T03080143  RH  037%=      5-min Rain = 0
KSW1 141410Z 18023G28KT 31/14 A2993 RMK A01 T03090143  RH  036%=      5-min Rain = 0
KSW1 141411Z 19020G25KT 31/14 A2993 RMK A01 T03100143  RH  036%=      5-min Rain = 0
KSW1 141412Z 19017KT 31/14 A2993 RMK A01 T03120143  RH  036%=      5-min Rain = 0
KSW1 141413Z 18017G24KT 31/14 A2993 RMK A01 T03140143  RH  036%=      5-min Rain = 0
KSW1 141414Z 19020G25KT 32/14 A2993 RMK A01 T03150142  RH  035%=      5-min Rain = 0
KSW1 141415Z 19022KT 32/14 A2993 RMK A01 T03150142  RH  035%=      5-min Rain = 0
KSW1 141416Z 19019G24KT 32/14 A2993 RMK A01 T03150141  RH  035%=      5-min Rain = 0
KSW1 141417Z 18016KT 32/14 A2993 RMK A01 T03160141  RH  035%=      5-min Rain = 0
KSW1 141418Z 19016KT 32/14 A2993 RMK A01 T03180143  RH  035%=      5-min Rain = 0
KSW1 141419Z 18019G24KT 32/14 A2993 RMK A01 T03200143  RH  034%=      5-min Rain = 0
KSW1 141420Z 19017G24KT 32/14 A2993 RMK A01 T03200142  RH  034%=      5-min Rain = 0
KSW1 141421Z 19019KT 32/14 A2993 RMK A01 T03210142  RH  034%=      5-min Rain = 0
KSW1 141422Z 19024G30KT 32/14 A2993 RMK A01 T03200139  RH  033%=      5-min Rain = 0
KSW1 141423Z 19023G28KT 32/14 A2993 RMK A01 T03170139  RH  034%=      5-min Rain = 0
KSW1 141424Z 20019G25KT 32/14 A2993 RMK A01 T03170138  RH  034%=      5-min Rain = 0
KSW1 141425Z 19020G27KT 32/14 A2993 RMK A01 T03190138  RH  033%=      5-min Rain = 0
KSW1 141426Z 19024KT 32/14 A2993 RMK A01 T03210139  RH  033%=      5-min Rain = 0
KSW1 141427Z 19019G26KT 32/14 A2993 RMK A01 T03200139  RH  033%=      5-min Rain = 0
KSW1 141428Z 19021KT 32/14 A2993 RMK A01 T03210138  RH  033%=      5-min Rain = 0
KSW1 141429Z 19018G23KT 32/14 A2993 RMK A01 T03210139  RH  033%=      5-min Rain = 0
KSW1 141430Z 19020G26KT 32/14 A2993 RMK A01 T03230141  RH  033%=      5-min Rain = 0
KSW1 141431Z 19021G26KT 32/14 A2993 RMK A01 T03220139  RH  033%=      5-min Rain = 0
KSW1 141432Z 20021KT 32/14 A2993 RMK A01 T03220136  RH  032%=      5-min Rain = 0
KSW1 141433Z 20022KT 32/14 A2994 RMK A01 T03210136  RH  033%=      5-min Rain = 0
KSW1 141434Z 19021G26KT 32/14 A2994 RMK A01 T03210135  RH  032%=      5-min Rain = 0
KSW1 141435Z 20020G25KT 32/14 A2994 RMK A01 T03220135  RH  032%=      5-min Rain = 0
KSW1 141436Z 20019G26KT 32/14 A2994 RMK A01 T03230136  RH  032%=      5-min Rain = 0
KSW1 141437Z 20023G28KT 32/14 A2994 RMK A01 T03240135  RH  032%=      5-min Rain = 0
KSW1 141438Z 20021G28KT 32/14 A2994 RMK A01 T03230136  RH  032%=      5-min Rain = 0
KSW1 141439Z 20017G25KT 32/14 A2994 RMK A01 T03220136  RH  032%=      5-min Rain = 0
KSW1 141440Z 19022KT 32/14 A2994 RMK A01 T03240137  RH  032%=      5-min Rain = 0
KSW1 141441Z 20017KT 33/14 A2994 RMK A01 T03250135  RH  032%=      5-min Rain = 0
KSW1 141442Z 20019G24KT 33/14 A2994 RMK A01 T03250135  RH  032%=      5-min Rain = 0
KSW1 141443Z 20015KT 33/14 A2994 RMK A01 T03250135  RH  032%=      5-min Rain = 0
KSW1 141444Z 20016KT 33/14 A2994 RMK A01 T03270136  RH  031%=      5-min Rain = 0
KSW1 141445Z 19019G24KT 33/14 A2994 RMK A01 T03270136  RH  031%=      5-min Rain = 0
KSW1 141446Z 19019G24KT 33/14 A2994 RMK A01 T03270135  RH  031%=      5-min Rain = 0
KSW1 141447Z 20021G26KT 33/13 A2994 RMK A01 T03270134  RH  031%=      5-min Rain = 0
KSW1 141448Z 20019KT 33/14 A2994 RMK A01 T03270135  RH  031%=      5-min Rain = 0
KSW1 141449Z 20020G25KT 33/14 A2994 RMK A01 T03260136  RH  031%=      5-min Rain = 0
KSW1 141450Z 20019G24KT 33/13 A2994 RMK A01 T03260134  RH  031%=      5-min Rain = 0
KSW1 141451Z 20019G25KT 33/14 A2994 RMK A01 T03250135  RH  031%=      5-min Rain = 0
KSW1 141452Z 20019G24KT 33/13 A2994 RMK A01 T03270134  RH  031%=      5-min Rain = 0
KSW1 141453Z 20019G24KT 33/13 A2994 RMK A01 T03290133  RH  031%=      5-min Rain = 0
KSW1 141454Z 20020G25KT 33/13 A2994 RMK A01 T03290132  RH  030%=      5-min Rain = 0
KSW1 141455Z 21019KT 33/13 A2994 RMK A01 T03280132  RH  030%=      5-min Rain = 0
KSW1 141456Z 21022KT 33/13 A2994 RMK A01 T03280133  RH  031%=      5-min Rain = 0
KSW1 141457Z 20019KT 33/13 A2994 RMK A01 T03280132  RH  031%=      5-min Rain = 0
KSW1 141458Z 19015KT 33/13 A2994 RMK A01 T03290133  RH  030%=      5-min Rain = 0
KSW1 141459Z 19019G25KT 33/13 A2994 RMK A01 T03320133  RH  030%=      5-min Rain = 0
KSW1 141500Z 20022KT 33/13 A2994 RMK A01 T03320131  RH  030%=      5-min Rain = 0
KSW1 141501Z 19019G27KT 33/13 A2994 RMK A01 T03300131  RH  030%=      5-min Rain = 0
KSW1 141502Z 19019G24KT 33/13 A2994 RMK A01 T03310131  RH  030%=      5-min Rain = 0
KSW1 141503Z 19017KT 33/13 A2994 RMK A01 T03330132  RH  030%=      5-min Rain = 0
KSW1 141504Z 19022G27KT 34/13 A2994 RMK A01 T03350131  RH  029%=      5-min Rain = 0
KSW1 141505Z 19020KT 34/13 A2994 RMK A01 T03350130  RH  029%=      5-min Rain = 0
KSW1 141506Z 19020KT 33/13 A2994 RMK A01 T03340129  RH  029%=      5-min Rain = 0
KSW1 141507Z 20023KT 33/13 A2994 RMK A01 T03330129  RH  029%=      5-min Rain = 0
KSW1 141508Z 20021KT 33/13 A2994 RMK A01 T03320128  RH  029%=      5-min Rain = 0
KSW1 141509Z 20022G27KT 33/13 A2994 RMK A01 T03320129  RH  029%=      5-min Rain = 0
KSW1 141510Z 19020KT 33/13 A2993 RMK A01 T03320130  RH  029%=      5-min Rain = 0
KSW1 141511Z 19019KT 33/13 A2994 RMK A01 T03330130  RH  029%=      5-min Rain = 0
KSW1 141512Z 20018G23KT 34/13 A2994 RMK A01 T03350130  RH  029%=      5-min Rain = 0
KSW1 141513Z 20020G26KT 34/13 A2994 RMK A01 T03370130  RH  029%=      5-min Rain = 0
KSW1 141514Z 21020KT 34/13 A2993 RMK A01 T03360129  RH  029%=      5-min Rain = 0
KSW1 141515Z 19017KT 34/13 A2994 RMK A01 T03350130  RH  029%=      5-min Rain = 0
KSW1 141516Z 19019KT 34/13 A2993 RMK A01 T03360129  RH  029%=      5-min Rain = 0
KSW1 141517Z 20018KT 34/13 A2993 RMK A01 T03370129  RH  028%=      5-min Rain = 0
KSW1 141518Z 18017G22KT 34/13 A2993 RMK A01 T03390130  RH  028%=      5-min Rain = 0
KSW1 141519Z 20017KT 34/13 A2993 RMK A01 T03420128  RH  028%=      5-min Rain = 0
KSW1 141520Z 19016G21KT 34/13 A2993 RMK A01 T03430128  RH  027%=      5-min Rain = 0
KSW1 141521Z 19021KT 34/13 A2993 RMK A01 T03440128  RH  027%=      5-min Rain = 0
KSW1 141522Z 19020KT 34/13 A2993 RMK A01 T03430127  RH  027%=      5-min Rain = 0
KSW1 141523Z 19020G25KT 34/13 A2993 RMK A01 T03430125  RH  027%=      5-min Rain = 0
KSW1 141524Z 19024KT 34/12 A2993 RMK A01 T03430124  RH  027%=      5-min Rain = 0
KSW1 141525Z 20015G20KT 34/12 A2993 RMK A01 T03410124  RH  027%=      5-min Rain = 0
KSW1 141526Z 19021KT 34/13 A2993 RMK A01 T03430126  RH  027%=      5-min Rain = 0
KSW1 141527Z 19017KT 34/13 A2993 RMK A01 T03430125  RH  027%=      5-min Rain = 0
KSW1 141528Z 19022KT 34/13 A2993 RMK A01 T03430125  RH  027%=      5-min Rain = 0
KSW1 141529Z 19023KT 34/12 A2993 RMK A01 T03430122  RH  026%=      5-min Rain = 0
KSW1 141530Z 19024KT 34/12 A2993 RMK A01 T03420120  RH  026%=      5-min Rain = 0
KSW1 141531Z 19025KT 34/12 A2993 RMK A01 T03420117  RH  026%=      5-min Rain = 0
KSW1 141532Z 19025KT 34/12 A2993 RMK A01 T03410118  RH  026%=      5-min Rain = 0
KSW1 141533Z 20020KT 34/12 A2993 RMK A01 T03400119  RH  026%=      5-min Rain = 0
KSW1 141534Z 20020KT 34/12 A2993 RMK A01 T03420120  RH  026%=      5-min Rain = 0
KSW1 141535Z 19017G22KT 34/12 A2993 RMK A01 T03430122  RH  026%=      5-min Rain = 0
KSW1 141536Z 18020KT 35/12 A2993 RMK A01 T03450122  RH  026%=      5-min Rain = 0
KSW1 141537Z 19019G24KT 35/12 A2993 RMK A01 T03480122  RH  025%=      5-min Rain = 0
KSW1 141538Z 18024KT 35/12 A2992 RMK A01 T03500121  RH  025%=      5-min Rain = 0
KSW1 141539Z 18025KT 35/12 A2993 RMK A01 T03500117  RH  024%=      5-min Rain = 0
KSW1 141540Z 18023G30KT 35/12 A2992 RMK A01 T03490115  RH  024%=      5-min Rain = 0
KSW1 141541Z 18023KT 35/12 A2992 RMK A01 T03480117  RH  025%=      5-min Rain = 0
KSW1 141542Z 19022G27KT 35/12 A2992 RMK A01 T03480116  RH  024%=      5-min Rain = 0
KSW1 141543Z 19020KT 35/12 A2993 RMK A01 T03480118  RH  025%=      5-min Rain = 0
KSW1 141544Z 18019G24KT 35/12 A2993 RMK A01 T03490120  RH  025%=      5-min Rain = 0
KSW1 141545Z 18020KT 35/12 A2992 RMK A01 T03510117  RH  024%=      5-min Rain = 0
KSW1 141546Z 19020KT 35/12 A2992 RMK A01 T03500119  RH  025%=      5-min Rain = 0
KSW1 141547Z 18018G24KT 35/12 A2992 RMK A01 T03490119  RH  025%=      5-min Rain = 0
KSW1 141548Z 18017G25KT 35/12 A2993 RMK A01 T03520122  RH  025%=      5-min Rain = 0
KSW1 141549Z 19023KT 36/12 A2992 RMK A01 T03550116  RH  024%=      5-min Rain = 0
KSW1 141550Z 18018G23KT 35/12 A2992 RMK A01 T03530115  RH  024%=      5-min Rain = 0
KSW1 141551Z 18022G27KT 35/12 A2992 RMK A01 T03530117  RH  024%=      5-min Rain = 0
KSW1 141552Z 18024KT 35/11 A2992 RMK A01 T03530113  RH  023%=      5-min Rain = 0
KSW1 141553Z 18021KT 35/11 A2992 RMK A01 T03510111  RH  023%=      5-min Rain = 0
KSW1 141554Z 18018KT 35/11 A2993 RMK A01 T03500113  RH  024%=      5-min Rain = 0
KSW1 141555Z 18021G28KT 35/12 A2992 RMK A01 T03510115  RH  024%=      5-min Rain = 0
KSW1 141556Z 17021KT 35/11 A2992 RMK A01 T03540111  RH  023%=      5-min Rain = 0
KSW1 141557Z 18023KT 35/11 A2992 RMK A01 T03540109  RH  023%=      5-min Rain = 0
KSW1 141558Z 18022G27KT 35/11 A2992 RMK A01 T03520108  RH  023%=      5-min Rain = 0
KSW1 141559Z 18021KT 35/11 A2992 RMK A01 T03510106  RH  023%=      5-min Rain = 0
KSW1 141600Z 19020G26KT 35/11 A2993 RMK A01 T03530108  RH  023%=      5-min Rain = 0
KSW1 141601Z 19021KT 35/11 A2993 RMK A01 T03540107  RH  022%=      5-min Rain = 0
KSW1 141602Z 18018G23KT 35/11 A2993 RMK A01 T03530108  RH  023%=      5-min Rain = 0
KSW1 141603Z 18019G25KT 36/11 A2993 RMK A01 T03570111  RH  023%=      5-min Rain = 0
KSW1 141604Z 18020G26KT 36/11 A2993 RMK A01 T03580108  RH  022%=      5-min Rain = 0
KSW1 141605Z 18015G24KT 36/11 A2993 RMK A01 T03570110  RH  022%=      5-min Rain = 0
KSW1 141606Z 19017G23KT 36/11 A2993 RMK A01 T03590109  RH  022%=      5-min Rain = 0
KSW1 141607Z 19019KT 36/11 A2993 RMK A01 T03610106  RH  021%=      5-min Rain = 0
KSW1 141608Z 19019G26KT 36/11 A2993 RMK A01 T03620105  RH  021%=      5-min Rain = 0
KSW1 141609Z 18022KT 36/10 A2993 RMK A01 T03610101  RH  021%=      5-min Rain = 0
KSW1 141610Z 18022KT 36/10 A2993 RMK A01 T03590101  RH  021%=      5-min Rain = 0
KSW1 141611Z 18022G29KT 36/10 A2993 RMK A01 T03590102  RH  021%=      5-min Rain = 0
KSW1 141612Z 19019G24KT 36/10 A2993 RMK A01 T03590104  RH  021%=      5-min Rain = 0
KSW1 141613Z 20023KT 36/10 A2993 RMK A01 T03590102  RH  021%=      5-min Rain = 0
KSW1 141614Z 19023KT 36/10 A2993 RMK A01 T03580100  RH  021%=      5-min Rain = 0
KSW1 141615Z 20023G28KT 36/10 A2993 RMK A01 T03560098  RH  021%=      5-min Rain = 0
KSW1 141616Z 20024KT 36/10 A2993 RMK A01 T03560099  RH  021%=      5-min Rain = 0
KSW1 141617Z 20020KT 36/10 A2993 RMK A01 T03560102  RH  021%=      5-min Rain = 0
KSW1 141618Z 21018G23KT 36/11 A2993 RMK A01 T03580105  RH  022%=      5-min Rain = 0
KSW1 141619Z 20016KT 36/10 A2993 RMK A01 T03600104  RH  021%=      5-min Rain = 0
KSW1 141620Z 19018G24KT 36/10 A2993 RMK A01 T03630102  RH  021%=      5-min Rain = 0
KSW1 141621Z 19020G26KT 36/10 A2993 RMK A01 T03640100  RH  020%=      5-min Rain = 0
KSW1 141622Z 19018G23KT 37/10 A2993 RMK A01 T03650099  RH  020%=      5-min Rain = 0
KSW1 141623Z 19022KT 37/10 A2993 RMK A01 T03670101  RH  020%=      5-min Rain = 0
KSW1 141624Z 19018G26KT 37/10 A2993 RMK A01 T03650100  RH  020%=      5-min Rain = 0
KSW1 141625Z 19022KT 37/10 A2993 RMK A01 T03670098  RH  020%=      5-min Rain = 0
KSW1 141626Z 19024KT 37/10 A2993 RMK A01 T03650095  RH  019%=      5-min Rain = 0
KSW1 141627Z 19021G27KT 36/10 A2993 RMK A01 T03630096  RH  020%=      5-min Rain = 0
KSW1 141628Z 20020G26KT 36/10 A2993 RMK A01 T03620096  RH  020%=      5-min Rain = 0
KSW1 141629Z 21020G25KT 36/10 A2993 RMK A01 T03590096  RH  020%=      5-min Rain = 0
KSW1 141630Z 20017KT 36/10 A2993 RMK A01 T03600100  RH  021%=      5-min Rain = 0
KSW1 141631Z 20020G25KT 37/10 A2993 RMK A01 T03650098  RH  020%=      5-min Rain = 0
KSW1 141632Z 21023G28KT 37/10 A2993 RMK A01 T03660099  RH  020%=      5-min Rain = 0
KSW1 141633Z 19020G25KT 37/10 A2993 RMK A01 T03650100  RH  020%=      5-min Rain = 0
KSW1 141634Z 19025KT 37/10 A2993 RMK A01 T03670098  RH  020%=      5-min Rain = 0
KSW1 141635Z 18023KT 37/10 A2993 RMK A01 T03670097  RH  019%=      5-min Rain = 0
KSW1 141636Z 19024KT 37/10 A2993 RMK A01 T03670097  RH  019%=      5-min Rain = 0
KSW1 141637Z 19023KT 37/10 A2993 RMK A01 T03660097  RH  020%=      5-min Rain = 0
KSW1 141638Z 20017KT 37/10 A2993 RMK A01 T03670096  RH  019%=      5-min Rain = 0
KSW1 141639Z 20022G27KT 37/10 A2993 RMK A01 T03690096  RH  019%=      5-min Rain = 0
KSW1 141640Z 20022G27KT 36/10 A2993 RMK A01 T03640096  RH  020%=      5-min Rain = 0
KSW1 141641Z 21021KT 36/10 A2993 RMK A01 T03640097  RH  020%=      5-min Rain = 0
KSW1 141642Z 20023KT 37/09 A2993 RMK A01 T03670094  RH  019%=      5-min Rain = 0
KSW1 141643Z 20020G27KT 37/10 A2993 RMK A01 T03670095  RH  019%=      5-min Rain = 0
KSW1 141644Z 21015KT 37/10 A2993 RMK A01 T03670096  RH  019%=      5-min Rain = 0
KSW1 141645Z 21019G26KT 37/10 A2993 RMK A01 T03670097  RH  019%=      5-min Rain = 0
KSW1 141646Z 21022G27KT 37/09 A2993 RMK A01 T03680094  RH  019%=      5-min Rain = 0
KSW1 141647Z 20019G24KT 37/10 A2994 RMK A01 T03680095  RH  019%=      5-min Rain = 0
KSW1 141648Z 21018KT 37/09 A2994 RMK A01 T03680094  RH  019%=      5-min Rain = 0
KSW1 141649Z 21022G27KT 37/09 A2993 RMK A01 T03650092  RH  019%=      5-min Rain = 0
KSW1 141650Z 21019KT 36/09 A2993 RMK A01 T03620092  RH  019%=      5-min Rain = 0
KSW1 141651Z 21018KT 36/09 A2994 RMK A01 T03620094  RH  020%=      5-min Rain = 0
KSW1 141652Z 19021KT 37/09 A2994 RMK A01 T03660093  RH  019%=      5-min Rain = 0
KSW1 141653Z 19019G24KT 37/09 A2994 RMK A01 T03680093  RH  019%=      5-min Rain = 0
KSW1 141654Z 19018KT 37/09 A2994 RMK A01 T03710093  RH  019%=      5-min Rain = 0
KSW1 141655Z 20020G25KT 37/09 A2994 RMK A01 T03730088  RH  018%=      5-min Rain = 0
KSW1 141656Z 20018KT 37/09 A2994 RMK A01 T03710088  RH  018%=      5-min Rain = 0
KSW1 141657Z 21014KT 37/09 A2994 RMK A01 T03730093  RH  018%=      5-min Rain = 0
KSW1 141658Z 21018KT 38/09 A2994 RMK A01 T03750092  RH  018%=      5-min Rain = 0
KSW1 141659Z 20014G20KT 37/09 A2994 RMK A01 T03730092  RH  018%=      5-min Rain = 0
KSW1 141700Z 21015KT 37/09 A2994 RMK A01 T03730092  RH  018%=      5-min Rain = 0
KSW1 141701Z 19016KT 37/09 A2994 RMK A01 T03720094  RH  018%=      5-min Rain = 0
KSW1 141702Z 21018KT 37/09 A2994 RMK A01 T03730094  RH  019%=      5-min Rain = 0
KSW1 141703Z 20020KT 37/09 A2994 RMK A01 T03730093  RH  018%=      5-min Rain = 0
KSW1 141704Z 20015KT 37/09 A2994 RMK A01 T03710092  RH  018%=      5-min Rain = 0
KSW1 141705Z 22015KT 37/09 A2994 RMK A01 T03740094  RH  018%=      5-min Rain = 0
KSW1 141706Z 21015G20KT 38/10 A2994 RMK A01 T03750097  RH  019%=      5-min Rain = 0
KSW1 141707Z 21022KT 38/09 A2994 RMK A01 T03760092  RH  018%=      5-min Rain = 0
KSW1 141708Z 20018KT 37/09 A2994 RMK A01 T03740086  RH  017%=      5-min Rain = 0
KSW1 141709Z 19022KT 37/08 A2994 RMK A01 T03740084  RH  017%=      5-min Rain = 0
KSW1 141710Z 19017G22KT 37/08 A2994 RMK A01 T03740084  RH  017%=      5-min Rain = 0
KSW1 141711Z 20019KT 38/09 A2994 RMK A01 T03770088  RH  017%=      5-min Rain = 0
KSW1 141712Z 20016G23KT 38/09 A2994 RMK A01 T03770092  RH  018%=      5-min Rain = 0
KSW1 141713Z 20020KT 38/09 A2994 RMK A01 T03770093  RH  018%=      5-min Rain = 0
KSW1 141714Z 19016G21KT 38/09 A2993 RMK A01 T03750090  RH  018%=      5-min Rain = 0
KSW1 141715Z 20018G23KT 38/09 A2993 RMK A01 T03760090  RH  018%=      5-min Rain = 0
KSW1 141716Z 19021G26KT 38/09 A2993 RMK A01 T03790088  RH  017%=      5-min Rain = 0
KSW1 141717Z 20018KT 38/09 A2993 RMK A01 T03770089  RH  018%=      5-min Rain = 0
KSW1 141718Z 20018KT 38/09 A2993 RMK A01 T03760091  RH  018%=      5-min Rain = 0
KSW1 141719Z 18019G24KT 38/09 A2993 RMK A01 T03770089  RH  017%=      5-min Rain = 0
KSW1 141720Z 19020G25KT 38/09 A2993 RMK A01 T03770087  RH  017%=      5-min Rain = 0
KSW1 141721Z 19017G22KT 38/09 A2993 RMK A01 T03770088  RH  017%=      5-min Rain = 0
KSW1 141722Z 20017G22KT 38/09 A2993 RMK A01 T03810088  RH  017%=      5-min Rain = 0
KSW1 141723Z 20016KT 38/09 A2993 RMK A01 T03810090  RH  017%=      5-min Rain = 0
KSW1 141724Z 20017G22KT 38/09 A2993 RMK A01 T03810091  RH  017%=      5-min Rain = 0
KSW1 141725Z 19014G19KT 38/09 A2993 RMK A01 T03820093  RH  018%=      5-min Rain = 0
KSW1 141726Z 19013G19KT 39/09 A2993 RMK A01 T03890094  RH  017%=      5-min Rain = 0
KSW1 141727Z 19017KT 39/09 A2993 RMK A01 T03910085  RH  016%=      5-min Rain = 0
KSW1 141728Z 20020G25KT 39/09 A2993 RMK A01 T03870085  RH  016%=      5-min Rain = 0
KSW1 141729Z 20018KT 38/08 A2993 RMK A01 T03830084  RH  016%=      5-min Rain = 0
KSW1 141730Z 20016KT 38/09 A2993 RMK A01 T03810087  RH  017%=      5-min Rain = 0
KSW1 141731Z 20017KT 38/09 A2993 RMK A01 T03820090  RH  017%=      5-min Rain = 0
KSW1 141732Z 20016G21KT 39/09 A2993 RMK A01 T03860090  RH  017%=      5-min Rain = 0
KSW1 141733Z 20014G20KT 39/08 A2993 RMK A01 T03860083  RH  016%=      5-min Rain = 0
KSW1 141734Z 20022KT 39/09 A2993 RMK A01 T03890086  RH  016%=      5-min Rain = 0
KSW1 141735Z 20018KT 38/08 A2993 RMK A01 T03830082  RH  016%=      5-min Rain = 0
KSW1 141736Z 21020KT 38/09 A2993 RMK A01 T03810087  RH  017%=      5-min Rain = 0
KSW1 141737Z 21017G22KT 38/09 A2993 RMK A01 T03810089  RH  017%=      5-min Rain = 0
KSW1 141738Z 21017KT 38/09 A2993 RMK A01 T03820090  RH  017%=      5-min Rain = 0
KSW1 141739Z 21019G24KT 38/09 A2993 RMK A01 T03810089  RH  017%=      5-min Rain = 0
KSW1 141740Z 21019G24KT 38/09 A2993 RMK A01 T03810089  RH  017%=      5-min Rain = 0
KSW1 141741Z 21017G22KT 38/09 A2993 RMK A01 T03820089  RH  017%=      5-min Rain = 0
KSW1 141742Z 20017G24KT 38/09 A2993 RMK A01 T03830090  RH  017%=      5-min Rain = 0
KSW1 141743Z 19019KT 39/08 A2993 RMK A01 T03860084  RH  016%=      5-min Rain = 0
KSW1 141744Z 19020KT 38/09 A2993 RMK A01 T03840085  RH  016%=      5-min Rain = 0
KSW1 141745Z 20020KT 38/08 A2993 RMK A01 T03840084  RH  016%=      5-min Rain = 0
KSW1 141746Z 20022KT 38/08 A2993 RMK A01 T03830083  RH  016%=      5-min Rain = 0
KSW1 141747Z 20021G27KT 38/08 A2993 RMK A01 T03820084  RH  016%=      5-min Rain = 0
KSW1 141748Z 19018KT 38/09 A2993 RMK A01 T03820085  RH  017%=      5-min Rain = 0
KSW1 141749Z 21016KT 38/09 A2993 RMK A01 T03810086  RH  017%=      5-min Rain = 0
KSW1 141750Z 21018KT 39/09 A2993 RMK A01 T03850091  RH  017%=      5-min Rain = 0
KSW1 141751Z 22017KT 39/09 A2993 RMK A01 T03860088  RH  017%=      5-min Rain = 0
KSW1 141752Z 20017G24KT 38/09 A2993 RMK A01 T03830089  RH  017%=      5-min Rain = 0
KSW1 141753Z 20020G25KT 38/09 A2993 RMK A01 T03830086  RH  017%=      5-min Rain = 0
KSW1 141754Z 20017G23KT 38/09 A2993 RMK A01 T03820087  RH  017%=      5-min Rain = 0
KSW1 141755Z 20017KT 38/09 A2993 RMK A01 T03820085  RH  017%=      5-min Rain = 0
KSW1 141756Z 20016G22KT 39/08 A2993 RMK A01 T03870084  RH  016%=      5-min Rain = 0
KSW1 141757Z 20019G25KT 39/09 A2993 RMK A01 T03880085  RH  016%=      5-min Rain = 0
KSW1 141758Z 20021G26KT 39/09 A2993 RMK A01 T03870087  RH  016%=      5-min Rain = 0
KSW1 141759Z 21022G27KT 39/09 A2993 RMK A01 T03850085  RH  016%=      5-min Rain = 0
KSW1 141800Z 20020G26KT 38/08 A2993 RMK A01 T03810083  RH  016%=      5-min Rain = 0
KSW1 141801Z 20020G25KT 38/08 A2993 RMK A01 T03830083  RH  016%=      5-min Rain = 0
KSW1 141802Z 21019KT 38/09 A2993 RMK A01 T03840085  RH  016%=      5-min Rain = 0
KSW1 141803Z 21016KT 38/09 A2993 RMK A01 T03840086  RH  016%=      5-min Rain = 0
KSW1 141804Z 20017G22KT 39/09 A2993 RMK A01 T03880091  RH  017%=      5-min Rain = 0
KSW1 141805Z 20019KT 39/09 A2993 RMK A01 T03880087  RH  016%=      5-min Rain = 0
KSW1 141806Z 21014KT 38/09 A2993 RMK A01 T03840090  RH  017%=      5-min Rain = 0
KSW1 141807Z 21018G23KT 39/09 A2993 RMK A01 T03870092  RH  017%=      5-min Rain = 0
KSW1 141808Z 20016KT 39/09 A2993 RMK A01 T03900090  RH  016%=      5-min Rain = 0
KSW1 141809Z 21019KT 39/09 A2993 RMK A01 T03920092  RH  017%=      5-min Rain = 0
KSW1 141810Z 21018KT 39/09 A2993 RMK A01 T03920090  RH  016%=      5-min Rain = 0
KSW1 141811Z 21017KT 39/09 A2992 RMK A01 T03890092  RH  017%=      5-min Rain = 0
KSW1 141812Z 22019KT 39/09 A2993 RMK A01 T03870089  RH  017%=      5-min Rain = 0
KSW1 141813Z 22016KT 39/09 A2993 RMK A01 T03870089  RH  017%=      5-min Rain = 0
KSW1 141814Z 21016KT 39/09 A2993 RMK A01 T03850089  RH  017%=      5-min Rain = 0
KSW1 141815Z 22014KT 39/09 A2993 RMK A01 T03880092  RH  017%=      5-min Rain = 0
KSW1 141816Z 20016G22KT 39/09 A2993 RMK A01 T03880093  RH  017%=      5-min Rain = 0
KSW1 141817Z 19017KT 39/09 A2993 RMK A01 T03880091  RH  017%=      5-min Rain = 0
KSW1 141818Z 18013G21KT 39/09 A2992 RMK A01 T03880091  RH  017%=      5-min Rain = 0
KSW1 141819Z 19019KT 39/09 A2992 RMK A01 T03900092  RH  017%=      5-min Rain = 0
KSW1 141820Z 19020KT 39/09 A2992 RMK A01 T03920093  RH  017%=      5-min Rain = 0
KSW1 141821Z 19018KT 39/09 A2992 RMK A01 T03920094  RH  017%=      5-min Rain = 0
KSW1 141822Z 20016KT 39/09 A2992 RMK A01 T03900092  RH  017%=      5-min Rain = 0
KSW1 141823Z 18018G24KT 39/09 A2992 RMK A01 T03910092  RH  017%=      5-min Rain = 0
KSW1 141824Z 20016G21KT 39/10 A2992 RMK A01 T03930095  RH  017%=      5-min Rain = 0
KSW1 141825Z 21013KT 40/10 A2992 RMK A01 T03960099  RH  017%=      5-min Rain = 0
KSW1 141826Z 20017KT 40/10 A2992 RMK A01 T03980095  RH  016%=      5-min Rain = 0
KSW1 141827Z 22017KT 40/09 A2992 RMK A01 T03960094  RH  016%=      5-min Rain = 0
KSW1 141828Z 21012KT 39/09 A2992 RMK A01 T03930090  RH  016%=      5-min Rain = 0
KSW1 141829Z 19016G21KT 39/09 A2992 RMK A01 T03920091  RH  016%=      5-min Rain = 0
KSW1 141830Z 19013KT 39/09 A2992 RMK A01 T03920093  RH  016%=      5-min Rain = 0
KSW1 141831Z 20019G24KT 39/09 A2992 RMK A01 T03930092  RH  016%=      5-min Rain = 0
KSW1 141832Z 21018KT 39/09 A2992 RMK A01 T03920092  RH  016%=      5-min Rain = 0
KSW1 141833Z 21017KT 39/09 A2992 RMK A01 T03920092  RH  016%=      5-min Rain = 0
KSW1 141834Z 22018KT 39/09 A2992 RMK A01 T03910093  RH  017%=      5-min Rain = 0
KSW1 141835Z 21016G21KT 39/09 A2992 RMK A01 T03900094  RH  017%=      5-min Rain = 0
KSW1 141836Z 21019KT 39/10 A2991 RMK A01 T03900095  RH  017%=      5-min Rain = 0
KSW1 141837Z 21021KT 39/10 A2991 RMK A01 T03920097  RH  017%=      5-min Rain = 0
KSW1 141838Z 22020KT 39/10 A2992 RMK A01 T03920097  RH  017%=      5-min Rain = 0
KSW1 141839Z 21016KT 39/10 A2992 RMK A01 T03900097  RH  017%=      5-min Rain = 0
KSW1 141840Z 21017KT 39/10 A2992 RMK A01 T03900095  RH  017%=      5-min Rain = 0
KSW1 141841Z 20018KT 39/09 A2992 RMK A01 T03900090  RH  016%=      5-min Rain = 0
KSW1 141842Z 18016KT 39/09 A2991 RMK A01 T03930086  RH  016%=      5-min Rain = 0
KSW1 141843Z 19022G27KT 39/09 A2991 RMK A01 T03940088  RH  016%=      5-min Rain = 0
KSW1 141844Z 21019KT 39/09 A2991 RMK A01 T03940089  RH  016%=      5-min Rain = 0
KSW1 141845Z 20020G27KT 39/09 A2991 RMK A01 T03930091  RH  016%=      5-min Rain = 0
KSW1 141846Z 21021G26KT 39/09 A2991 RMK A01 T03920090  RH  016%=      5-min Rain = 0
KSW1 141847Z 20016KT 39/09 A2992 RMK A01 T03930093  RH  016%=      5-min Rain = 0
KSW1 141848Z 22014G20KT 39/09 A2992 RMK A01 T03930093  RH  016%=      5-min Rain = 0
KSW1 141849Z 22019G24KT 39/09 A2991 RMK A01 T03920092  RH  016%=      5-min Rain = 0
KSW1 141850Z 21019KT 39/09 A2991 RMK A01 T03920092  RH  016%=      5-min Rain = 0
KSW1 141851Z 20015KT 39/09 A2991 RMK A01 T03910090  RH  016%=      5-min Rain = 0
KSW1 141852Z 21016G22KT 39/09 A2991 RMK A01 T03940090  RH  016%=      5-min Rain = 0
KSW1 141853Z 22013KT 40/10 A2991 RMK A01 T03990095  RH  016%=      5-min Rain = 0
KSW1 141854Z 21012KT 40/10 A2991 RMK A01 T03990095  RH  016%=      5-min Rain = 0
KSW1 141855Z 20019G24KT 40/09 A2991 RMK A01 T04010093  RH  016%=      5-min Rain = 0
KSW1 141856Z 21020KT 40/09 A2991 RMK A01 T03980091  RH  016%=      5-min Rain = 0
KSW1 141857Z 21017G24KT 40/09 A2991 RMK A01 T03980094  RH  016%=      5-min Rain = 0
KSW1 141858Z 21018KT 40/09 A2991 RMK A01 T03980091  RH  016%=      5-min Rain = 0
KSW1 141859Z 21015KT 40/09 A2991 RMK A01 T03950091  RH  016%=      5-min Rain = 0
KSW1 141900Z 21016KT 40/09 A2991 RMK A01 T03960090  RH  016%=      5-min Rain = 0
KSW1 141901Z 22015KT 40/09 A2991 RMK A01 T03970091  RH  016%=      5-min Rain = 0
KSW1 141902Z 22019G25KT 40/09 A2991 RMK A01 T03960091  RH  016%=      5-min Rain = 0
KSW1 141903Z 22018KT 40/09 A2991 RMK A01 T03960089  RH  016%=      5-min Rain = 0
KSW1 141904Z 20017KT 40/09 A2991 RMK A01 T03970089  RH  016%=      5-min Rain = 0
KSW1 141905Z 19016G23KT 40/09 A2991 RMK A01 T04010086  RH  015%=      5-min Rain = 0
KSW1 141906Z 18017G22KT 40/09 A2991 RMK A01 T04030085  RH  015%=      5-min Rain = 0
KSW1 141907Z 19017G22KT 40/09 A299 RMK A01 T04040085  RH  015%=      5-min Rain = 0
KSW1 141908Z 19017G22KT 40/09 A299 RMK A01 T04040086  RH  015%=      5-min Rain = 0
KSW1 141909Z 21014G19KT 41/09 A2991 RMK A01 T04060090  RH  015%=      5-min Rain = 0
KSW1 141910Z 21019KT 41/09 A299 RMK A01 T04080091  RH  015%=      5-min Rain = 0
KSW1 141911Z 21016KT 41/09 A299 RMK A01 T04070092  RH  015%=      5-min Rain = 0
KSW1 141912Z 21016G22KT 41/09 A299 RMK A01 T04060092  RH  015%=      5-min Rain = 0
KSW1 141913Z 20016KT 41/09 A299 RMK A01 T04070089  RH  015%=      5-min Rain = 0
KSW1 141914Z 19018KT 41/08 A299 RMK A01 T04050082  RH  014%=      5-min Rain = 0
KSW1 141915Z 19013KT 40/08 A299 RMK A01 T04020082  RH  015%=      5-min Rain = 0
KSW1 141916Z 19013KT 40/08 A299 RMK A01 T04040083  RH  015%=      5-min Rain = 0
KSW1 141917Z 20015KT 41/09 A299 RMK A01 T04060086  RH  015%=      5-min Rain = 0
KSW1 141918Z 19021G27KT 41/09 A299 RMK A01 T04060085  RH  015%=      5-min Rain = 0
KSW1 141919Z 19019KT 41/09 A299 RMK A01 T04050085  RH  015%=      5-min Rain = 0
KSW1 141920Z 20017KT 41/09 A299 RMK A01 T04070086  RH  015%=      5-min Rain = 0
KSW1 141921Z 20017KT 41/08 A299 RMK A01 T04070084  RH  014%=      5-min Rain = 0
KSW1 141922Z 21016KT 41/08 A299 RMK A01 T04070084  RH  014%=      5-min Rain = 0
KSW1 141923Z 21012KT 41/09 A299 RMK A01 T04050085  RH  015%=      5-min Rain = 0
KSW1 141924Z 21016G23KT 41/09 A299 RMK A01 T04070088  RH  015%=      5-min Rain = 0
KSW1 141925Z 20013KT 41/09 A299 RMK A01 T04090085  RH  014%=      5-min Rain = 0
KSW1 141926Z 22013KT 41/09 A299 RMK A01 T04110087  RH  014%=      5-min Rain = 0
KSW1 141927Z 22012G18KT 41/09 A299 RMK A01 T04100090  RH  015%=      5-min Rain = 0
KSW1 141928Z 21011KT 41/09 A299 RMK A01 T04100089  RH  015%=      5-min Rain = 0
KSW1 141929Z 21015G22KT 42/09 A299 RMK A01 T04150092  RH  015%=      5-min Rain = 0
KSW1 141930Z 21018KT 42/09 A299 RMK A01 T04170087  RH  014%=      5-min Rain = 0
KSW1 141931Z 21015KT 42/09 A299 RMK A01 T04150085  RH  014%=      5-min Rain = 0
KSW1 141932Z 20014KT 41/09 A299 RMK A01 T04130085  RH  014%=      5-min Rain = 0
KSW1 141933Z 21013KT 41/08 A299 RMK A01 T04110082  RH  014%=      5-min Rain = 0
KSW1 141934Z 22013KT 41/09 A2989 RMK A01 T04100086  RH  014%=      5-min Rain = 0
KSW1 141935Z 21017KT 41/09 A299 RMK A01 T04110089  RH  015%=      5-min Rain = 0
KSW1 141936Z 21014KT 41/09 A299 RMK A01 T04100087  RH  014%=      5-min Rain = 0
KSW1 141937Z 21013G18KT 41/09 A2989 RMK A01 T04090091  RH  015%=      5-min Rain = 0
KSW1 141938Z 22015KT 41/09 A2989 RMK A01 T04110088  RH  014%=      5-min Rain = 0
KSW1 141939Z 21015KT 41/08 A2989 RMK A01 T04130084  RH  014%=      5-min Rain = 0
KSW1 141940Z 22018KT 41/08 A2989 RMK A01 T04130078  RH  013%=      5-min Rain = 0
KSW1 141941Z 22021KT 41/08 A2989 RMK A01 T04120077  RH  013%=      5-min Rain = 0
KSW1 141942Z 22018KT 41/08 A2989 RMK A01 T04100078  RH  014%=      5-min Rain = 0
KSW1 141943Z 22019G24KT 41/08 A2989 RMK A01 T04110079  RH  014%=      5-min Rain = 0
KSW1 141944Z 21017KT 41/08 A2989 RMK A01 T04090081  RH  014%=      5-min Rain = 0
KSW1 141945Z 22014KT 41/08 A2989 RMK A01 T04100078  RH  014%=      5-min Rain = 0
KSW1 141946Z 21013KT 41/08 A2989 RMK A01 T04090078  RH  014%=      5-min Rain = 0
KSW1 141947Z 22013G19KT 41/08 A2989 RMK A01 T04130083  RH  014%=      5-min Rain = 0
KSW1 141948Z 22013G18KT 42/08 A2989 RMK A01 T04180082  RH  013%=      5-min Rain = 0
KSW1 141949Z 23015G23KT 42/08 A2989 RMK A01 T04210083  RH  013%=      5-min Rain = 0
KSW1 141950Z 23016KT 42/08 A2989 RMK A01 T04200082  RH  013%=      5-min Rain = 0
KSW1 141951Z 23016KT 42/08 A2989 RMK A01 T04150077  RH  013%=      5-min Rain = 0
KSW1 141952Z 23018G23KT 41/08 A2989 RMK A01 T04130079  RH  013%=      5-min Rain = 0
KSW1 141953Z 22017KT 42/08 A2988 RMK A01 T04160081  RH  013%=      5-min Rain = 0
KSW1 141954Z 18014KT 42/08 A2989 RMK A01 T04180082  RH  013%=      5-min Rain = 0
KSW1 141955Z 20016KT 42/08 A2989 RMK A01 T04210083  RH  013%=      5-min Rain = 0
KSW1 141956Z 20018KT 43/08 A2989 RMK A01 T04260078  RH  013%=      5-min Rain = 0
KSW1 141957Z 20016KT 42/07 A2989 RMK A01 T04170073  RH  013%=      5-min Rain = 0
KSW1 141958Z 21016G21KT 41/08 A2988 RMK A01 T04140078  RH  013%=      5-min Rain = 0
KSW1 141959Z 21017KT 42/08 A2988 RMK A01 T04150082  RH  014%=      5-min Rain = 0
KSW1 142000Z 19015KT 42/08 A2989 RMK A01 T04160082  RH  014%=      5-min Rain = 0
KSW1 142001Z 19014KT 42/08 A2988 RMK A01 T04160080  RH  013%=      5-min Rain = 0
KSW1 142002Z 19013KT 42/08 A2988 RMK A01 T04150082  RH  014%=      5-min Rain = 0
KSW1 142003Z 19013KT 42/09 A2988 RMK A01 T04170085  RH  014%=      5-min Rain = 0
KSW1 142004Z 20015KT 42/09 A2988 RMK A01 T04240088  RH  014%=      5-min Rain = 0
KSW1 142005Z 21018KT 43/08 A2988 RMK A01 T04310081  RH  012%=      5-min Rain = 0
KSW1 142006Z 21015KT 43/08 A2988 RMK A01 T04250075  RH  012%=      5-min Rain = 0
KSW1 142007Z 22021KT 42/07 A2988 RMK A01 T04220072  RH  012%=      5-min Rain = 0
KSW1 142008Z 22016G21KT 42/07 A2988 RMK A01 T04190073  RH  013%=      5-min Rain = 0
KSW1 142009Z 21019KT 42/07 A2989 RMK A01 T04190073  RH  013%=      5-min Rain = 0
KSW1 142010Z 21013KT 42/08 A2989 RMK A01 T04190077  RH  013%=      5-min Rain = 0
KSW1 142011Z 23013KT 42/08 A2988 RMK A01 T04210078  RH  013%=      5-min Rain = 0
KSW1 142012Z 22012KT 42/08 A2988 RMK A01 T04190079  RH  013%=      5-min Rain = 0
KSW1 142013Z 20013KT 42/08 A2988 RMK A01 T04190082  RH  013%=      5-min Rain = 0
KSW1 142014Z 20011KT 42/08 A2988 RMK A01 T04200080  RH  013%=      5-min Rain = 0
KSW1 142015Z 21016G21KT 42/09 A2988 RMK A01 T04200086  RH  014%=      5-min Rain = 0
KSW1 142016Z 20014KT 42/09 A2988 RMK A01 T04220088  RH  014%=      5-min Rain = 0
KSW1 142017Z 19013KT 42/09 A2988 RMK A01 T04190089  RH  014%=      5-min Rain = 0
KSW1 142018Z 20012KT 42/09 A2988 RMK A01 T04170089  RH  014%=      5-min Rain = 0
KSW1 142019Z 20013KT 42/09 A2988 RMK A01 T04160089  RH  014%=      5-min Rain = 0
KSW1 142020Z 19018KT 42/09 A2988 RMK A01 T04160090  RH  014%=      5-min Rain = 0
KSW1 142021Z 17014KT 42/09 A2988 RMK A01 T04150089  RH  014%=      5-min Rain = 0
KSW1 142022Z 17016KT 41/09 A2988 RMK A01 T04120090  RH  015%=      5-min Rain = 0
KSW1 142023Z 19013KT 41/09 A2988 RMK A01 T04130090  RH  015%=      5-min Rain = 0
KSW1 142024Z 20015G21KT 42/09 A2988 RMK A01 T04160090  RH  014%=      5-min Rain = 0
KSW1 142025Z 18019KT 42/09 A2988 RMK A01 T04200088  RH  014%=      5-min Rain = 0
KSW1 142026Z 19019KT 42/09 A2988 RMK A01 T04190088  RH  014%=      5-min Rain = 0
KSW1 142027Z 19017KT 42/09 A2988 RMK A01 T04190087  RH  014%=      5-min Rain = 0
KSW1 142028Z 19016KT 42/09 A2988 RMK A01 T04190085  RH  014%=      5-min Rain = 0
KSW1 142029Z 20016KT 42/09 A2988 RMK A01 T04180087  RH  014%=      5-min Rain = 0
KSW1 142030Z 19016KT 42/09 A2988 RMK A01 T04170087  RH  014%=      5-min Rain = 0
KSW1 142031Z 20018G23KT 42/09 A2988 RMK A01 T04180087  RH  014%=      5-min Rain = 0
KSW1 142032Z 21017G23KT 42/09 A2988 RMK A01 T04180089  RH  014%=      5-min Rain = 0
KSW1 142033Z 22014KT 42/09 A2988 RMK A01 T04180089  RH  014%=      5-min Rain = 0
KSW1 142034Z 21010KT 42/09 A2988 RMK A01 T04180091  RH  014%=      5-min Rain = 0
KSW1 142035Z 18013G21KT 42/09 A2988 RMK A01 T04200093  RH  014%=      5-min Rain = 0
KSW1 142036Z 18017KT 42/09 A2988 RMK A01 T04190086  RH  014%=      5-min Rain = 0
KSW1 142037Z 18016KT 42/08 A2988 RMK A01 T04150084  RH  014%=      5-min Rain = 0
KSW1 142038Z 18012KT 41/08 A2988 RMK A01 T04130084  RH  014%=      5-min Rain = 0
KSW1 142039Z 21012G17KT 42/09 A2988 RMK A01 T04160087  RH  014%=      5-min Rain = 0
KSW1 142040Z 20016KT 42/09 A2988 RMK A01 T04180086  RH  014%=      5-min Rain = 0
KSW1 142041Z 21014G19KT 42/09 A2988 RMK A01 T04210087  RH  014%=      5-min Rain = 0
KSW1 142042Z 20013KT 42/09 A2988 RMK A01 T04240088  RH  014%=      5-min Rain = 0
KSW1 142043Z 20013KT 43/09 A2988 RMK A01 T04270086  RH  013%=      5-min Rain = 0
KSW1 142044Z 20016G22KT 43/09 A2988 RMK A01 T04280085  RH  013%=      5-min Rain = 0
KSW1 142045Z 20016G21KT 43/08 A2988 RMK A01 T04250083  RH  013%=      5-min Rain = 0
KSW1 142046Z 20015KT 43/09 A2988 RMK A01 T04260085  RH  013%=      5-min Rain = 0
KSW1 142047Z 21011KT 43/09 A2988 RMK A01 T04280087  RH  013%=      5-min Rain = 0
KSW1 142048Z 21013KT 43/08 A2988 RMK A01 T04310082  RH  013%=      5-min Rain = 0
KSW1 142049Z 22018KT 43/08 A2988 RMK A01 T04320083  RH  012%=      5-min Rain = 0
KSW1 142050Z 21017KT 43/08 A2988 RMK A01 T04300077  RH  012%=      5-min Rain = 0
KSW1 142051Z 22011KT 42/08 A2988 RMK A01 T04240075  RH  012%=      5-min Rain = 0
KSW1 142052Z 22012KT 42/08 A2988 RMK A01 T04210078  RH  013%=      5-min Rain = 0
KSW1 142053Z 20013G21KT 42/08 A2988 RMK A01 T04220079  RH  013%=      5-min Rain = 0
KSW1 142054Z 21021KT 42/08 A2988 RMK A01 T04220082  RH  013%=      5-min Rain = 0
KSW1 142055Z 22017KT 42/09 A2988 RMK A01 T04240085  RH  013%=      5-min Rain = 0
KSW1 142056Z 23015G20KT 42/08 A2988 RMK A01 T04230082  RH  013%=      5-min Rain = 0
KSW1 142057Z 21013G18KT 42/08 A2988 RMK A01 T04200081  RH  013%=      5-min Rain = 0
KSW1 142058Z 19011G21KT 42/08 A2987 RMK A01 T04200081  RH  013%=      5-min Rain = 0
KSW1 142059Z 21019G24KT 42/08 A2988 RMK A01 T04240081  RH  013%=      5-min Rain = 0
KSW1 142100Z 20015KT 42/08 A2988 RMK A01 T04230080  RH  013%=      5-min Rain = 0
KSW1 142101Z 19013KT 42/08 A2988 RMK A01 T04220077  RH  013%=      5-min Rain = 0
KSW1 142102Z 19013KT 42/08 A2988 RMK A01 T04200077  RH  013%=      5-min Rain = 0
KSW1 142103Z 18009KT 42/08 A2988 RMK A01 T04210080  RH  013%=      5-min Rain = 0
KSW1 142104Z 19014KT 43/08 A2987 RMK A01 T04270083  RH  013%=      5-min Rain = 0
KSW1 142105Z 19018KT 43/08 A2988 RMK A01 T04320083  RH  013%=      5-min Rain = 0
KSW1 142106Z 20020KT 43/08 A2988 RMK A01 T04310076  RH  012%=      5-min Rain = 0
KSW1 142107Z 20017KT 43/08 A2988 RMK A01 T04270075  RH  012%=      5-min Rain = 0
KSW1 142108Z 20018KT 43/07 A2988 RMK A01 T04260074  RH  012%=      5-min Rain = 0
KSW1 142109Z 19014KT 43/07 A2988 RMK A01 T04250073  RH  012%=      5-min Rain = 0
KSW1 142110Z 20013KT 42/07 A2987 RMK A01 T04230071  RH  012%=      5-min Rain = 0
KSW1 142111Z 20014G19KT 42/08 A2987 RMK A01 T04230075  RH  013%=      5-min Rain = 0
KSW1 142112Z 19013KT 42/08 A2987 RMK A01 T04240076  RH  012%=      5-min Rain = 0
KSW1 142113Z 20016G24KT 43/08 A2987 RMK A01 T04250075  RH  012%=      5-min Rain = 0
KSW1 142114Z 21021KT 43/08 A2987 RMK A01 T04250077  RH  012%=      5-min Rain = 0
KSW1 142115Z 20013KT 42/08 A2987 RMK A01 T04220075  RH  013%=      5-min Rain = 0
KSW1 142116Z 19013KT 42/08 A2987 RMK A01 T04220075  RH  013%=      5-min Rain = 0
KSW1 142117Z 20018KT 42/08 A2987 RMK A01 T04220075  RH  013%=      5-min Rain = 0
KSW1 142118Z 18015KT 42/08 A2987 RMK A01 T04220075  RH  013%=      5-min Rain = 0
KSW1 142119Z 19017KT 42/08 A2987 RMK A01 T04230077  RH  013%=      5-min Rain = 0
KSW1 142120Z 19016KT 43/08 A2987 RMK A01 T04260076  RH  012%=      5-min Rain = 0
KSW1 142121Z 19015KT 42/08 A2987 RMK A01 T04240075  RH  012%=      5-min Rain = 0
KSW1 142122Z 19012KT 42/07 A2987 RMK A01 T04220074  RH  012%=      5-min Rain = 0
KSW1 142123Z 19017G24KT 42/08 A2987 RMK A01 T04210075  RH  013%=      5-min Rain = 0
KSW1 142124Z 18017G22KT 43/08 A2987 RMK A01 T04250076  RH  012%=      5-min Rain = 0
KSW1 142125Z 20019G24KT 42/08 A2987 RMK A01 T04240075  RH  012%=      5-min Rain = 0
KSW1 142126Z 19016G22KT 42/07 A2987 RMK A01 T04210074  RH  012%=      5-min Rain = 0
KSW1 142127Z 18020KT 42/07 A2987 RMK A01 T04200074  RH  013%=      5-min Rain = 0
KSW1 142128Z 18019KT 42/07 A2987 RMK A01 T04190074  RH  013%=      5-min Rain = 0
KSW1 142129Z 18018KT 42/07 A2987 RMK A01 T04180074  RH  013%=      5-min Rain = 0
KSW1 142130Z 17014G19KT 42/08 A2986 RMK A01 T04190077  RH  013%=      5-min Rain = 0
KSW1 142131Z 17021G26KT 42/08 A2986 RMK A01 T04240077  RH  013%=      5-min Rain = 0
KSW1 142132Z 18021G26KT 43/08 A2986 RMK A01 T04260077  RH  012%=      5-min Rain = 0
KSW1 142133Z 17018G23KT 43/08 A2986 RMK A01 T04260076  RH  012%=      5-min Rain = 0
KSW1 142134Z 19017KT 43/08 A2986 RMK A01 T04260076  RH  012%=      5-min Rain = 0
KSW1 142135Z 19015G20KT 43/08 A2987 RMK A01 T04280075  RH  012%=      5-min Rain = 0
KSW1 142136Z 18016G21KT 43/07 A2986 RMK A01 T04270073  RH  012%=      5-min Rain = 0
KSW1 142137Z 18019KT 42/07 A2987 RMK A01 T04230073  RH  012%=      5-min Rain = 0
KSW1 142138Z 18016G21KT 42/07 A2987 RMK A01 T04200073  RH  012%=      5-min Rain = 0
KSW1 142139Z 17016KT 42/07 A2986 RMK A01 T04200073  RH  012%=      5-min Rain = 0
KSW1 142140Z 17013G18KT 42/08 A2986 RMK A01 T04220076  RH  013%=      5-min Rain = 0
KSW1 142141Z 18017G22KT 42/08 A2986 RMK A01 T04240075  RH  012%=      5-min Rain = 0
KSW1 142142Z 20011G16KT 43/08 A2986 RMK A01 T04250075  RH  012%=      5-min Rain = 0
KSW1 142143Z 19014G20KT 43/08 A2986 RMK A01 T04300080  RH  012%=      5-min Rain = 0
KSW1 142144Z 19019KT 43/08 A2986 RMK A01 T04330075  RH  012%=      5-min Rain = 0
KSW1 142145Z 19018KT 43/07 A2986 RMK A01 T04280071  RH  012%=      5-min Rain = 0
KSW1 142146Z 18018KT 43/07 A2986 RMK A01 T04260072  RH  012%=      5-min Rain = 0
KSW1 142147Z 19015KT 43/07 A2986 RMK A01 T04260072  RH  012%=      5-min Rain = 0
KSW1 142148Z 20018KT 43/07 A2986 RMK A01 T04260071  RH  012%=      5-min Rain = 0
KSW1 142149Z 19014KT 42/07 A2986 RMK A01 T04240071  RH  012%=      5-min Rain = 0
KSW1 142150Z 19016G21KT 42/07 A2986 RMK A01 T04240071  RH  012%=      5-min Rain = 0
KSW1 142151Z 18021KT 43/07 A2986 RMK A01 T04260068  RH  012%=      5-min Rain = 0
KSW1 142152Z 19018G25KT 43/07 A2986 RMK A01 T04250066  RH  012%=      5-min Rain = 0
KSW1 142153Z 20013KT 42/07 A2986 RMK A01 T04240068  RH  012%=      5-min Rain = 0
KSW1 142154Z 21016KT 43/07 A2986 RMK A01 T04280070  RH  012%=      5-min Rain = 0
KSW1 142155Z 21016KT 43/07 A2986 RMK A01 T04290069  RH  012%=      5-min Rain = 0
KSW1 142156Z 20015G23KT 43/07 A2986 RMK A01 T04270068  RH  012%=      5-min Rain = 0
KSW1 142157Z 21017KT 43/07 A2986 RMK A01 T04270067  RH  012%=      5-min Rain = 0
KSW1 142158Z 19011G16KT 42/07 A2986 RMK A01 T04230066  RH  012%=      5-min Rain = 0
KSW1 142159Z 20010KT 42/07 A2986 RMK A01 T04210067  RH  012%=      5-min Rain = 0
KSW1 142200Z 18014KT 42/07 A2986 RMK A01 T04200069  RH  012%=      5-min Rain = 0
KSW1 142201Z 19012G17KT 42/07 A2986 RMK A01 T04230068  RH  012%=      5-min Rain = 0
KSW1 142202Z 19012G17KT 42/07 A2986 RMK A01 T04240068  RH  012%=      5-min Rain = 0
KSW1 142203Z 17016KT 43/07 A2986 RMK A01 T04270071  RH  012%=      5-min Rain = 0
KSW1 142204Z 17017KT 43/07 A2986 RMK A01 T04260071  RH  012%=      5-min Rain = 0
KSW1 142205Z 18017KT 42/07 A2986 RMK A01 T04240072  RH  012%=      5-min Rain = 0
KSW1 142206Z 21015KT 42/07 A2986 RMK A01 T04240069  RH  012%=      5-min Rain = 0
KSW1 142207Z 20014G19KT 43/07 A2986 RMK A01 T04250069  RH  012%=      5-min Rain = 0
KSW1 142208Z 20017KT 43/07 A2986 RMK A01 T04260067  RH  012%=      5-min Rain = 0
KSW1 142209Z 20016KT 42/07 A2986 RMK A01 T04240065  RH  012%=      5-min Rain = 0
KSW1 142210Z 20018KT 42/07 A2986 RMK A01 T04230065  RH  012%=      5-min Rain = 0
KSW1 142211Z 20015KT 42/07 A2986 RMK A01 T04220065  RH  012%=      5-min Rain = 0
KSW1 142212Z 20014KT 42/07 A2986 RMK A01 T04220068  RH  012%=      5-min Rain = 0
KSW1 142213Z 20017KT 42/07 A2986 RMK A01 T04230067  RH  012%=      5-min Rain = 0
KSW1 142214Z 19016KT 42/07 A2986 RMK A01 T04230065  RH  012%=      5-min Rain = 0
KSW1 142215Z 20015G20KT 42/07 A2986 RMK A01 T04230066  RH  012%=      5-min Rain = 0
KSW1 142216Z 19012KT 42/07 A2986 RMK A01 T04230066  RH  012%=      5-min Rain = 0
KSW1 142217Z 18012G17KT 43/07 A2986 RMK A01 T04250067  RH  012%=      5-min Rain = 0
KSW1 142218Z 18017KT 42/07 A2986 RMK A01 T04240067  RH  012%=      5-min Rain = 0
KSW1 142219Z 18013G18KT 42/07 A2986 RMK A01 T04220065  RH  012%=      5-min Rain = 0
KSW1 142220Z 19010KT 42/07 A2986 RMK A01 T04210069  RH  012%=      5-min Rain = 0
KSW1 142221Z 18010KT 43/07 A2986 RMK A01 T04260070  RH  012%=      5-min Rain = 0
KSW1 142222Z 17013KT 43/07 A2985 RMK A01 T04280068  RH  012%=      5-min Rain = 0
KSW1 142223Z 18012KT 43/07 A2986 RMK A01 T04260069  RH  012%=      5-min Rain = 0
KSW1 142224Z 20019G27KT 43/07 A2985 RMK A01 T04270068  RH  012%=      5-min Rain = 0
KSW1 142225Z 21015KT 43/07 A2986 RMK A01 T04270067  RH  012%=      5-min Rain = 0
KSW1 142226Z 21010KT 42/07 A2986 RMK A01 T04230067  RH  012%=      5-min Rain = 0
KSW1 142227Z 22008KT 42/07 A2986 RMK A01 T04230069  RH  012%=      5-min Rain = 0
KSW1 142228Z 20010KT 43/07 A2985 RMK A01 T04250073  RH  012%=      5-min Rain = 0
KSW1 142229Z 18012KT 43/07 A2985 RMK A01 T04260072  RH  012%=      5-min Rain = 0
KSW1 142230Z 18014KT 43/07 A2985 RMK A01 T04280068  RH  012%=      5-min Rain = 0
KSW1 142231Z 18015KT 43/07 A2985 RMK A01 T04270067  RH  012%=      5-min Rain = 0
KSW1 142232Z 18015KT 43/07 A2985 RMK A01 T04270067  RH  011%=      5-min Rain = 0
KSW1 142233Z 18014KT 43/07 A2985 RMK A01 T04260065  RH  011%=      5-min Rain = 0
KSW1 142234Z 17015KT 43/07 A2985 RMK A01 T04260065  RH  011%=      5-min Rain = 0
KSW1 142235Z 17019KT 42/07 A2985 RMK A01 T04230065  RH  012%=      5-min Rain = 0
KSW1 142236Z 18017G22KT 42/07 A2985 RMK A01 T04210065  RH  012%=      5-min Rain = 0
KSW1 142237Z 19018G24KT 42/07 A2985 RMK A01 T04230066  RH  012%=      5-min Rain = 0
KSW1 142238Z 19016KT 42/07 A2985 RMK A01 T04230065  RH  012%=      5-min Rain = 0
KSW1 142239Z 19014KT 42/06 A2985 RMK A01 T04220064  RH  012%=      5-min Rain = 0
KSW1 142240Z 18014G19KT 42/07 A2985 RMK A01 T04220065  RH  012%=      5-min Rain = 0
KSW1 142241Z 17016KT 42/06 A2985 RMK A01 T04220064  RH  012%=      5-min Rain = 0
KSW1 142242Z 17015G23KT 42/07 A2985 RMK A01 T04210067  RH  012%=      5-min Rain = 0
KSW1 142243Z 18017KT 42/07 A2985 RMK A01 T04220067  RH  012%=      5-min Rain = 0
KSW1 142244Z 19016KT 42/06 A2985 RMK A01 T04220063  RH  011%=      5-min Rain = 0
KSW1 142245Z 17016G22KT 42/07 A2985 RMK A01 T04210065  RH  012%=      5-min Rain = 0
KSW1 142246Z 18015KT 42/06 A2985 RMK A01 T04210064  RH  012%=      5-min Rain = 0
KSW1 142247Z 17017KT 42/06 A2985 RMK A01 T04200064  RH  012%=      5-min Rain = 0
KSW1 142248Z 17016KT 42/06 A2985 RMK A01 T04190064  RH  012%=      5-min Rain = 0
KSW1 142249Z 19017KT 42/06 A2985 RMK A01 T04190064  RH  012%=      5-min Rain = 0
KSW1 142250Z 19017KT 42/06 A2985 RMK A01 T04200063  RH  012%=      5-min Rain = 0
KSW1 142251Z 19015KT 42/06 A2985 RMK A01 T04200063  RH  012%=      5-min Rain = 0
KSW1 142252Z 18019KT 42/06 A2985 RMK A01 T04200064  RH  012%=      5-min Rain = 0
KSW1 142253Z 18019G24KT 42/06 A2985 RMK A01 T04210064  RH  012%=      5-min Rain = 0
KSW1 142254Z 19014KT 42/06 A2985 RMK A01 T04200063  RH  012%=      5-min Rain = 0
KSW1 142255Z 17016KT 42/06 A2985 RMK A01 T04180063  RH  012%=      5-min Rain = 0
KSW1 142256Z 18016KT 42/07 A2985 RMK A01 T04180065  RH  012%=      5-min Rain = 0
KSW1 142257Z 17018KT 42/06 A2985 RMK A01 T04200064  RH  012%=      5-min Rain = 0
KSW1 142258Z 17017KT 42/06 A2985 RMK A01 T04200064  RH  012%=      5-min Rain = 0
KSW1 142259Z 17017KT 42/06 A2985 RMK A01 T04180062  RH  012%=      5-min Rain = 0
KSW1 142300Z 17017KT 42/06 A2985 RMK A01 T04170062  RH  012%=      5-min Rain = 0
KSW1 142301Z 17017G22KT 42/06 A2984 RMK A01 T04160062  RH  012%=      5-min Rain = 0
KSW1 142302Z 18018KT 42/06 A2984 RMK A01 T04170063  RH  012%=      5-min Rain = 0
KSW1 142303Z 18020KT 42/06 A2984 RMK A01 T04180062  RH  012%=      5-min Rain = 0
KSW1 142304Z 18018G23KT 42/06 A2984 RMK A01 T04180060  RH  012%=      5-min Rain = 0
KSW1 142305Z 18020G25KT 42/06 A2984 RMK A01 T04160061  RH  012%=      5-min Rain = 0
KSW1 142306Z 17019KT 42/06 A2984 RMK A01 T04160061  RH  012%=      5-min Rain = 0
KSW1 142307Z 17018KT 42/06 A2984 RMK A01 T04160062  RH  012%=      5-min Rain = 0
KSW1 142308Z 17017KT 42/06 A2984 RMK A01 T04160062  RH  012%=      5-min Rain = 0
KSW1 142309Z 17015KT 42/06 A2984 RMK A01 T04180064  RH  012%=      5-min Rain = 0
KSW1 142310Z 17016KT 42/06 A2984 RMK A01 T04180063  RH  012%=      5-min Rain = 0
KSW1 142311Z 16017KT 42/06 A2984 RMK A01 T04170063  RH  012%=      5-min Rain = 0
KSW1 142312Z 17021KT 42/06 A2984 RMK A01 T04170062  RH  012%=      5-min Rain = 0
KSW1 142313Z 18018KT 42/06 A2984 RMK A01 T04160059  RH  012%=      5-min Rain = 0
KSW1 142314Z 17018KT 42/06 A2984 RMK A01 T04150061  RH  012%=      5-min Rain = 0
KSW1 142315Z 17015KT 42/06 A2984 RMK A01 T04150063  RH  012%=      5-min Rain = 0
KSW1 142316Z 17018KT 42/06 A2984 RMK A01 T04170062  RH  012%=      5-min Rain = 0
KSW1 142317Z 17020KT 42/06 A2984 RMK A01 T04180061  RH  012%=      5-min Rain = 0
KSW1 142318Z 18020KT 42/06 A2984 RMK A01 T04170060  RH  012%=      5-min Rain = 0
KSW1 142319Z 18017KT 42/06 A2984 RMK A01 T04160059  RH  012%=      5-min Rain = 0
KSW1 142320Z 17015KT 42/06 A2984 RMK A01 T04160060  RH  012%=      5-min Rain = 0
KSW1 142321Z 17015G20KT 42/06 A2984 RMK A01 T04170062  RH  012%=      5-min Rain = 0
KSW1 142322Z 18019G24KT 42/06 A2984 RMK A01 T04150060  RH  012%=      5-min Rain = 0
KSW1 142323Z 17018KT 42/06 A2984 RMK A01 T04150060  RH  012%=      5-min Rain = 0
KSW1 142324Z 17015G20KT 42/06 A2984 RMK A01 T04150060  RH  012%=      5-min Rain = 0
KSW1 142325Z 17016KT 42/06 A2984 RMK A01 T04160062  RH  012%=      5-min Rain = 0
KSW1 142326Z 17018KT 42/06 A2984 RMK A01 T04160060  RH  012%=      5-min Rain = 0
KSW1 142327Z 19021KT 42/06 A2984 RMK A01 T04160059  RH  012%=      5-min Rain = 0
KSW1 142328Z 19018G23KT 42/06 A2984 RMK A01 T04160057  RH  011%=      5-min Rain = 0
KSW1 142329Z 19019KT 42/06 A2984 RMK A01 T04160058  RH  011%=      5-min Rain = 0
KSW1 142330Z 18017KT 42/06 A2984 RMK A01 T04160058  RH  012%=      5-min Rain = 0
KSW1 142331Z 18017KT 41/06 A2984 RMK A01 T04140057  RH  012%=      5-min Rain = 0
KSW1 142332Z 17015G20KT 41/06 A2984 RMK A01 T04140059  RH  012%=      5-min Rain = 0
KSW1 142333Z 18015G21KT 42/06 A2984 RMK A01 T04150059  RH  012%=      5-min Rain = 0
KSW1 142334Z 18018KT 42/06 A2984 RMK A01 T04150056  RH  011%=      5-min Rain = 0
KSW1 142335Z 18015KT 41/06 A2984 RMK A01 T04140058  RH  012%=      5-min Rain = 0
KSW1 142336Z 18019KT 42/06 A2984 RMK A01 T04150058  RH  012%=      5-min Rain = 0
KSW1 142337Z 18015G20KT 42/06 A2984 RMK A01 T04150055  RH  011%=      5-min Rain = 0
KSW1 142338Z 18015G20KT 41/06 A2984 RMK A01 T04140057  RH  012%=      5-min Rain = 0
KSW1 142339Z 17017KT 42/06 A2983 RMK A01 T04150056  RH  011%=      5-min Rain = 0
KSW1 142340Z 17017G23KT 42/06 A2983 RMK A01 T04150058  RH  012%=      5-min Rain = 0
KSW1 142341Z 17018KT 41/06 A2983 RMK A01 T04140056  RH  011%=      5-min Rain = 0
KSW1 142342Z 18016G21KT 41/06 A2983 RMK A01 T04130056  RH  011%=      5-min Rain = 0
KSW1 142343Z 18017KT 41/06 A2983 RMK A01 T04140055  RH  011%=      5-min Rain = 0
KSW1 142344Z 18020KT 42/05 A2983 RMK A01 T04150054  RH  011%=      5-min Rain = 0
KSW1 142345Z 17018KT 41/05 A2983 RMK A01 T04140054  RH  011%=      5-min Rain = 0
KSW1 142346Z 16017KT 41/05 A2983 RMK A01 T04130054  RH  011%=      5-min Rain = 0
KSW1 142347Z 17016KT 41/06 A2983 RMK A01 T04130055  RH  011%=      5-min Rain = 0
KSW1 142348Z 17018KT 41/06 A2983 RMK A01 T04120056  RH  012%=      5-min Rain = 0
KSW1 142349Z 17019G24KT 41/06 A2983 RMK A01 T04120056  RH  012%=      5-min Rain = 0
KSW1 142350Z 17020KT 41/06 A2983 RMK A01 T04120057  RH  012%=      5-min Rain = 0
KSW1 142351Z 17019KT 41/06 A2983 RMK A01 T04110056  RH  012%=      5-min Rain = 0
KSW1 142352Z 17017KT 41/06 A2984 RMK A01 T04100055  RH  012%=      5-min Rain = 0
KSW1 142353Z 18015KT 41/05 A2984 RMK A01 T04100054  RH  012%=      5-min Rain = 0
KSW1 142354Z 18014KT 41/05 A2984 RMK A01 T04110054  RH  011%=      5-min Rain = 0
KSW1 142355Z 17019KT 41/06 A2983 RMK A01 T04120057  RH  012%=      5-min Rain = 0
KSW1 142356Z 17017KT 41/06 A2984 RMK A01 T04120057  RH  012%=      5-min Rain = 0
KSW1 142357Z 18013KT 41/06 A2984 RMK A01 T04110056  RH  012%=      5-min Rain = 0
KSW1 142358Z 20015G20KT 41/06 A2984 RMK A01 T04120056  RH  012%=      5-min Rain = 0
KSW1 142359Z 19017KT 41/06 A2984 RMK A01 T04130056  RH  012%=      5-min Rain = 0
KSW1 150000Z 18018KT 41/06 A2983 RMK A01 T04130055  RH  011%=      5-min Rain = 0
KSW1 150001Z 19014KT 41/06 A2984 RMK A01 T04120055  RH  011%=      5-min Rain = 0
KSW1 150002Z 18018G23KT 41/06 A2983 RMK A01 T04130056  RH  011%=      5-min Rain = 0
KSW1 150003Z 18019KT 41/05 A2983 RMK A01 T04120054  RH  011%=      5-min Rain = 0
KSW1 150004Z 17017KT 41/06 A2983 RMK A01 T04110055  RH  012%=      5-min Rain = 0
KSW1 150005Z 18016KT 41/06 A2984 RMK A01 T04100055  RH  012%=      5-min Rain = 0
KSW1 150006Z 17018KT 41/06 A2984 RMK A01 T04100055  RH  012%=      5-min Rain = 0
KSW1 150007Z 18018KT 41/06 A2984 RMK A01 T04090055  RH  012%=      5-min Rain = 0
KSW1 150008Z 18018KT 41/06 A2984 RMK A01 T04090055  RH  012%=      5-min Rain = 0
KSW1 150009Z 18016G21KT 41/06 A2984 RMK A01 T04080055  RH  012%=      5-min Rain = 0
KSW1 150010Z 16013G19KT 41/06 A2984 RMK A01 T04080057  RH  012%=      5-min Rain = 0
KSW1 150011Z 16015KT 41/06 A2983 RMK A01 T04080058  RH  012%=      5-min Rain = 0
KSW1 150012Z 16019KT 41/06 A2983 RMK A01 T04080058  RH  012%=      5-min Rain = 0
KSW1 150013Z 16019G24KT 41/06 A2983 RMK A01 T04080059  RH  012%=      5-min Rain = 0
KSW1 150014Z 17017KT 41/06 A2984 RMK A01 T04080057  RH  012%=      5-min Rain = 0
KSW1 150015Z 18015G20KT 41/06 A2984 RMK A01 T04080056  RH  012%=      5-min Rain = 0
KSW1 150016Z 19017KT 41/06 A2984 RMK A01 T04080055  RH  012%=      5-min Rain = 0
KSW1 150017Z 18016KT 41/05 A2984 RMK A01 T04080054  RH  012%=      5-min Rain = 0
KSW1 150018Z 18015KT 41/06 A2984 RMK A01 T04080056  RH  012%=      5-min Rain = 0
KSW1 150019Z 18011KT 41/06 A2984 RMK A01 T04080057  RH  012%=      5-min Rain = 0
KSW1 150020Z 18013G19KT 41/06 A2984 RMK A01 T04090059  RH  012%=      5-min Rain = 0
KSW1 150021Z 18017KT 41/06 A2984 RMK A01 T04090058  RH  012%=      5-min Rain = 0
KSW1 150022Z 18019G24KT 41/06 A2984 RMK A01 T04080058  RH  012%=      5-min Rain = 0
KSW1 150023Z 18018KT 41/06 A2984 RMK A01 T04070056  RH  012%=      5-min Rain = 0
KSW1 150024Z 17019KT 41/06 A2984 RMK A01 T04050057  RH  012%=      5-min Rain = 0
KSW1 150025Z 16017KT 40/06 A2984 RMK A01 T04040058  RH  012%=      5-min Rain = 0
KSW1 150026Z 17018G23KT 40/06 A2984 RMK A01 T04040059  RH  012%=      5-min Rain = 0
KSW1 150027Z 16016KT 40/06 A2984 RMK A01 T04030057  RH  012%=      5-min Rain = 0
KSW1 150028Z 16018KT 40/06 A2984 RMK A01 T04030058  RH  012%=      5-min Rain = 0
KSW1 150029Z 17017KT 40/06 A2984 RMK A01 T04030058  RH  012%=      5-min Rain = 0
KSW1 150030Z 17014KT 40/06 A2984 RMK A01 T04020057  RH  012%=      5-min Rain = 0
KSW1 150031Z 17015KT 40/06 A2984 RMK A01 T04030058  RH  012%=      5-min Rain = 0
KSW1 150032Z 17019G25KT 40/06 A2984 RMK A01 T04030057  RH  012%=      5-min Rain = 0
KSW1 150033Z 17017KT 40/06 A2984 RMK A01 T04030056  RH  012%=      5-min Rain = 0
KSW1 150034Z 17018KT 40/06 A2984 RMK A01 T04020057  RH  012%=      5-min Rain = 0
KSW1 150035Z 18017G22KT 40/06 A2984 RMK A01 T04010057  RH  012%=      5-min Rain = 0
KSW1 150036Z 18018KT 40/06 A2984 RMK A01 T04010055  RH  012%=      5-min Rain = 0
KSW1 150037Z 17020KT 40/05 A2984 RMK A01 T04020054  RH  012%=      5-min Rain = 0
KSW1 150038Z 17018KT 40/05 A2984 RMK A01 T04010054  RH  012%=      5-min Rain = 0
KSW1 150039Z 18018G24KT 40/05 A2984 RMK A01 T04010054  RH  012%=      5-min Rain = 0
KSW1 150040Z 18021KT 40/05 A2984 RMK A01 T04010054  RH  012%=      5-min Rain = 0
KSW1 150041Z 18018KT 40/05 A2984 RMK A01 T04010054  RH  012%=      5-min Rain = 0
KSW1 150042Z 17017KT 40/05 A2984 RMK A01 T04000054  RH  012%=      5-min Rain = 0
KSW1 150043Z 18018KT 40/05 A2984 RMK A01 T04000054  RH  012%=      5-min Rain = 0
KSW1 150044Z 16016KT 40/06 A2984 RMK A01 T03990055  RH  012%=      5-min Rain = 0
KSW1 150045Z 16016KT 40/06 A2984 RMK A01 T03990056  RH  012%=      5-min Rain = 0
KSW1 150046Z 17019KT 40/06 A2984 RMK A01 T03980057  RH  012%=      5-min Rain = 0
KSW1 150047Z 17016KT 40/06 A2984 RMK A01 T03980056  RH  012%=      5-min Rain = 0
KSW1 150048Z 17016KT 40/06 A2984 RMK A01 T03980056  RH  012%=      5-min Rain = 0
KSW1 150049Z 17016KT 40/06 A2984 RMK A01 T03980056  RH  013%=      5-min Rain = 0
KSW1 150050Z 16017KT 40/06 A2984 RMK A01 T03970057  RH  013%=      5-min Rain = 0
KSW1 150051Z 17019KT 40/06 A2984 RMK A01 T03970057  RH  013%=      5-min Rain = 0
KSW1 150052Z 17016KT 40/06 A2984 RMK A01 T03960056  RH  013%=      5-min Rain = 0
KSW1 150053Z 17018KT 40/06 A2984 RMK A01 T03960057  RH  013%=      5-min Rain = 0
KSW1 150054Z 17021KT 40/06 A2984 RMK A01 T03960056  RH  013%=      5-min Rain = 0
KSW1 150055Z 18020KT 40/06 A2984 RMK A01 T03960055  RH  013%=      5-min Rain = 0
KSW1 150056Z 18018KT 40/06 A2985 RMK A01 T03950055  RH  013%=      5-min Rain = 0
KSW1 150057Z 17016KT 40/06 A2985 RMK A01 T03950055  RH  013%=      5-min Rain = 0
KSW1 150058Z 17014KT 40/06 A2985 RMK A01 T03950057  RH  013%=      5-min Rain = 0
KSW1 150059Z 18015KT 39/06 A2985 RMK A01 T03940056  RH  013%=      5-min Rain = 0
KSW1 150100Z 18017KT 39/06 A2985 RMK A01 T03940056  RH  013%=      5-min Rain = 0
KSW1 150101Z 17014KT 39/06 A2985 RMK A01 T03940057  RH  013%=      5-min Rain = 0
KSW1 150102Z 17014KT 39/06 A2985 RMK A01 T03940058  RH  013%=      5-min Rain = 0
KSW1 150103Z 17013KT 39/06 A2985 RMK A01 T03920058  RH  013%=      5-min Rain = 0
KSW1 150104Z 17016KT 39/06 A2985 RMK A01 T03920058  RH  013%=      5-min Rain = 0
KSW1 150105Z 17015KT 39/06 A2985 RMK A01 T03910058  RH  013%=      5-min Rain = 0
KSW1 150106Z 17014KT 39/06 A2985 RMK A01 T03910058  RH  013%=      5-min Rain = 0
KSW1 150107Z 17015KT 39/06 A2985 RMK A01 T03910058  RH  013%=      5-min Rain = 0
KSW1 150108Z 17017KT 39/06 A2985 RMK A01 T03900059  RH  013%=      5-min Rain = 0
KSW1 150109Z 17018KT 39/06 A2985 RMK A01 T03900058  RH  013%=      5-min Rain = 0
KSW1 150110Z 18016KT 39/06 A2985 RMK A01 T03900058  RH  013%=      5-min Rain = 0
KSW1 150111Z 17017KT 39/06 A2985 RMK A01 T03890058  RH  013%=      5-min Rain = 0
KSW1 150112Z 17015KT 39/06 A2985 RMK A01 T03890058  RH  013%=      5-min Rain = 0
KSW1 150113Z 17015KT 39/06 A2985 RMK A01 T03880059  RH  013%=      5-min Rain = 0
KSW1 150114Z 17018KT 39/06 A2985 RMK A01 T03880059  RH  013%=      5-min Rain = 0
KSW1 150115Z 17016G21KT 39/06 A2985 RMK A01 T03880058  RH  013%=      5-min Rain = 0
KSW1 150116Z 17016KT 39/06 A2985 RMK A01 T03870057  RH  013%=      5-min Rain = 0
KSW1 150117Z 17015G21KT 39/06 A2985 RMK A01 T03870057  RH  013%=      5-min Rain = 0
KSW1 150118Z 17018KT 39/06 A2985 RMK A01 T03860057  RH  013%=      5-min Rain = 0
KSW1 150119Z 17019G24KT 39/06 A2985 RMK A01 T03860057  RH  013%=      5-min Rain = 0
KSW1 150120Z 17019KT 39/06 A2985 RMK A01 T03860057  RH  013%=      5-min Rain = 0
KSW1 150121Z 17018KT 39/06 A2985 RMK A01 T03850057  RH  013%=      5-min Rain = 0
KSW1 150122Z 17019KT 39/06 A2985 RMK A01 T03850057  RH  014%=      5-min Rain = 0
KSW1 150123Z 17018G24KT 38/06 A2985 RMK A01 T03840058  RH  014%=      5-min Rain = 0
KSW1 150124Z 17017KT 38/06 A2985 RMK A01 T03840058  RH  014%=      5-min Rain = 0
KSW1 150125Z 17017KT 38/06 A2985 RMK A01 T03830058  RH  014%=      5-min Rain = 0
KSW1 150126Z 17015G20KT 38/06 A2985 RMK A01 T03820058  RH  014%=      5-min Rain = 0
KSW1 150127Z 17014KT 38/06 A2985 RMK A01 T03810059  RH  014%=      5-min Rain = 0
KSW1 150128Z 17014KT 38/06 A2985 RMK A01 T03800058  RH  014%=      5-min Rain = 0
KSW1 150129Z 17016KT 38/06 A2985 RMK A01 T03800058  RH  014%=      5-min Rain = 0
KSW1 150130Z 17019KT 38/06 A2985 RMK A01 T03790058  RH  014%=      5-min Rain = 0
KSW1 150131Z 17014KT 38/06 A2985 RMK A01 T03790058  RH  014%=      5-min Rain = 0
KSW1 150132Z 17016KT 38/06 A2985 RMK A01 T03790058  RH  014%=      5-min Rain = 0
KSW1 150133Z 17016KT 38/06 A2985 RMK A01 T03790058  RH  014%=      5-min Rain = 0
KSW1 150134Z 17013KT 38/06 A2985 RMK A01 T03780058  RH  014%=      5-min Rain = 0
KSW1 150135Z 17015KT 38/06 A2985 RMK A01 T03770058  RH  014%=      5-min Rain = 0
KSW1 150136Z 17016KT 38/06 A2985 RMK A01 T03770058  RH  014%=      5-min Rain = 0
KSW1 150137Z 17015KT 38/06 A2985 RMK A01 T03760058  RH  014%=      5-min Rain = 0
KSW1 150138Z 17015KT 38/06 A2985 RMK A01 T03760058  RH  014%=      5-min Rain = 0
KSW1 150139Z 17014KT 38/06 A2985 RMK A01 T03750058  RH  014%=      5-min Rain = 0
KSW1 150140Z 17016KT 37/06 A2985 RMK A01 T03740059  RH  014%=      5-min Rain = 0
KSW1 150141Z 17015KT 37/06 A2985 RMK A01 T03740058  RH  014%=      5-min Rain = 0
KSW1 150142Z 17015KT 37/06 A2985 RMK A01 T03740059  RH  014%=      5-min Rain = 0
KSW1 150143Z 17015KT 37/06 A2985 RMK A01 T03730059  RH  015%=      5-min Rain = 0
KSW1 150144Z 17014KT 37/06 A2985 RMK A01 T03730059  RH  015%=      5-min Rain = 0
KSW1 150145Z 17013G18KT 37/06 A2985 RMK A01 T03720059  RH  015%=      5-min Rain = 0
KSW1 150146Z 17015KT 37/06 A2985 RMK A01 T03710060  RH  015%=      5-min Rain = 0
KSW1 150147Z 17015KT 37/06 A2985 RMK A01 T03700060  RH  015%=      5-min Rain = 0
KSW1 150148Z 17013KT 37/06 A2985 RMK A01 T03700060  RH  015%=      5-min Rain = 0
KSW1 150149Z 17015KT 37/06 A2985 RMK A01 T03700061  RH  015%=      5-min Rain = 0
KSW1 150150Z 16014G19KT 37/06 A2985 RMK A01 T03690062  RH  015%=      5-min Rain = 0
KSW1 150151Z 17015KT 37/06 A2985 RMK A01 T03690062  RH  015%=      5-min Rain = 0
KSW1 150152Z 17014KT 37/06 A2985 RMK A01 T03690063  RH  015%=      5-min Rain = 0
KSW1 150153Z 17015KT 37/06 A2985 RMK A01 T03680063  RH  015%=      5-min Rain = 0
KSW1 150154Z 17014KT 37/06 A2985 RMK A01 T03690064  RH  015%=      5-min Rain = 0
KSW1 150155Z 16014KT 37/07 A2985 RMK A01 T03690065  RH  015%=      5-min Rain = 0
KSW1 150156Z 17015G20KT 37/07 A2985 RMK A01 T03680065  RH  016%=      5-min Rain = 0
KSW1 150157Z 17015KT 37/07 A2985 RMK A01 T03680065  RH  016%=      5-min Rain = 0
KSW1 150158Z 17015KT 37/07 A2985 RMK A01 T03680065  RH  016%=      5-min Rain = 0
KSW1 150159Z 17013KT 37/07 A2985 RMK A01 T03680065  RH  016%=      5-min Rain = 0
KSW1 150200Z 17014G19KT 37/07 A2985 RMK A01 T03680066  RH  016%=      5-min Rain = 0
KSW1 150201Z 17014KT 37/07 A2985 RMK A01 T03670066  RH  016%=      5-min Rain = 0
KSW1 150202Z 17013KT 37/07 A2985 RMK A01 T03670067  RH  016%=      5-min Rain = 0
KSW1 150203Z 17015KT 37/07 A2985 RMK A01 T03660066  RH  016%=      5-min Rain = 0
KSW1 150204Z 17014KT 37/07 A2985 RMK A01 T03650066  RH  016%=      5-min Rain = 0
KSW1 150205Z 17015KT 37/07 A2985 RMK A01 T03660066  RH  016%=      5-min Rain = 0
KSW1 150206Z 17013G18KT 37/07 A2985 RMK A01 T03660067  RH  016%=      5-min Rain = 0
KSW1 150207Z 17013KT 37/07 A2985 RMK A01 T03650066  RH  016%=      5-min Rain = 0
KSW1 150208Z 17014KT 36/07 A2985 RMK A01 T03640066  RH  016%=      5-min Rain = 0
KSW1 150209Z 17015KT 36/07 A2985 RMK A01 T03640066  RH  016%=      5-min Rain = 0
KSW1 150210Z 17014KT 36/07 A2985 RMK A01 T03640067  RH  016%=      5-min Rain = 0
KSW1 150211Z 17015KT 36/07 A2985 RMK A01 T03640066  RH  016%=      5-min Rain = 0
KSW1 150212Z 17014KT 36/07 A2985 RMK A01 T03630066  RH  016%=      5-min Rain = 0
KSW1 150213Z 17014KT 36/07 A2985 RMK A01 T03630066  RH  016%=      5-min Rain = 0
KSW1 150214Z 17013KT 36/07 A2985 RMK A01 T03630066  RH  016%=      5-min Rain = 0
KSW1 150215Z 17013KT 36/07 A2985 RMK A01 T03620066  RH  016%=      5-min Rain = 0
KSW1 150216Z 17012KT 36/07 A2985 RMK A01 T03610066  RH  016%=      5-min Rain = 0
KSW1 150217Z 17013KT 36/07 A2985 RMK A01 T03600066  RH  016%=      5-min Rain = 0
KSW1 150218Z 17013KT 36/07 A2985 RMK A01 T03600066  RH  016%=      5-min Rain = 0
KSW1 150219Z 17015KT 36/07 A2985 RMK A01 T03600065  RH  016%=      5-min Rain = 0
KSW1 150220Z 17014KT 36/06 A2985 RMK A01 T03600064  RH  016%=      5-min Rain = 0
KSW1 150221Z 17014KT 36/06 A2985 RMK A01 T03610064  RH  016%=      5-min Rain = 0
KSW1 150222Z 17014KT 36/06 A2985 RMK A01 T03610064  RH  016%=      5-min Rain = 0
KSW1 150223Z 17015KT 36/06 A2985 RMK A01 T03610064  RH  016%=      5-min Rain = 0
KSW1 150224Z 17015KT 36/06 A2985 RMK A01 T03610064  RH  016%=      5-min Rain = 0
KSW1 150225Z 17015KT 36/06 A2985 RMK A01 T03610064  RH  016%=      5-min Rain = 0
KSW1 150226Z 17014KT 36/06 A2985 RMK A01 T03610064  RH  016%=      5-min Rain = 0
KSW1 150227Z 17014KT 36/06 A2985 RMK A01 T03610064  RH  016%=      5-min Rain = 0
KSW1 150228Z 17015KT 36/06 A2985 RMK A01 T03610064  RH  016%=      5-min Rain = 0
KSW1 150229Z 17014KT 36/06 A2985 RMK A01 T03600064  RH  016%=      5-min Rain = 0
KSW1 150230Z 17014KT 36/07 A2985 RMK A01 T03600065  RH  016%=      5-min Rain = 0
KSW1 150231Z 18015KT 36/06 A2985 RMK A01 T03590064  RH  016%=      5-min Rain = 0
KSW1 150232Z 17013KT 36/07 A2986 RMK A01 T03590065  RH  016%=      5-min Rain = 0
KSW1 150233Z 18016KT 36/07 A2985 RMK A01 T03590065  RH  016%=      5-min Rain = 0
KSW1 150234Z 17015KT 36/07 A2986 RMK A01 T03590065  RH  016%=      5-min Rain = 0
KSW1 150235Z 17016KT 36/07 A2986 RMK A01 T03590065  RH  016%=      5-min Rain = 0
KSW1 150236Z 18014KT 36/07 A2986 RMK A01 T03590065  RH  016%=      5-min Rain = 0
KSW1 150237Z 17013KT 36/07 A2986 RMK A01 T03580066  RH  017%=      5-min Rain = 0
KSW1 150238Z 17014KT 36/07 A2986 RMK A01 T03570066  RH  017%=      5-min Rain = 0
KSW1 150239Z 17015KT 36/07 A2986 RMK A01 T03570066  RH  017%=      5-min Rain = 0
KSW1 150240Z 18015KT 36/07 A2986 RMK A01 T03570066  RH  017%=      5-min Rain = 0
KSW1 150241Z 18015KT 36/07 A2986 RMK A01 T03560067  RH  017%=      5-min Rain = 0
KSW1 150242Z 17014G19KT 36/07 A2986 RMK A01 T03550066  RH  017%=      5-min Rain = 0
KSW1 150243Z 17015KT 36/07 A2986 RMK A01 T03550067  RH  017%=      5-min Rain = 0
KSW1 150244Z 17016KT 36/07 A2986 RMK A01 T03550067  RH  017%=      5-min Rain = 0
KSW1 150245Z 17016KT 36/07 A2986 RMK A01 T03550067  RH  017%=      5-min Rain = 0
KSW1 150246Z 17014KT 36/07 A2986 RMK A01 T03550067  RH  017%=      5-min Rain = 0
KSW1 150247Z 17014KT 35/07 A2986 RMK A01 T03540067  RH  017%=      5-min Rain = 0
KSW1 150248Z 18014KT 35/07 A2986 RMK A01 T03530067  RH  017%=      5-min Rain = 0
KSW1 150249Z 17016KT 35/07 A2986 RMK A01 T03530067  RH  017%=      5-min Rain = 0
KSW1 150250Z 17015G20KT 35/07 A2986 RMK A01 T03530068  RH  017%=      5-min Rain = 0
KSW1 150251Z 17013KT 35/07 A2986 RMK A01 T03530068  RH  017%=      5-min Rain = 0
KSW1 150252Z 17014G19KT 35/07 A2986 RMK A01 T03520068  RH  017%=      5-min Rain = 0
KSW1 150253Z 17015KT 35/07 A2986 RMK A01 T03510068  RH  017%=      5-min Rain = 0
KSW1 150254Z 17015KT 35/07 A2986 RMK A01 T03520068  RH  017%=      5-min Rain = 0
KSW1 150255Z 17015KT 35/07 A2986 RMK A01 T03510068  RH  017%=      5-min Rain = 0
KSW1 150256Z 17014G19KT 35/07 A2986 RMK A01 T03510068  RH  017%=      5-min Rain = 0
KSW1 150257Z 17015KT 35/07 A2986 RMK A01 T03500068  RH  018%=      5-min Rain = 0
KSW1 150258Z 17015KT 35/07 A2987 RMK A01 T03500068  RH  018%=      5-min Rain = 0
KSW1 150259Z 17013KT 35/07 A2987 RMK A01 T03500069  RH  018%=      5-min Rain = 0
KSW1 150300Z 17013KT 35/07 A2987 RMK A01 T03500069  RH  018%=      5-min Rain = 0
KSW1 150301Z 17015KT 35/07 A2987 RMK A01 T03500068  RH  018%=      5-min Rain = 0
KSW1 150302Z 18015KT 35/07 A2987 RMK A01 T03500068  RH  018%=      5-min Rain = 0
KSW1 150303Z 17015KT 35/07 A2987 RMK A01 T03500069  RH  018%=      5-min Rain = 0
KSW1 150304Z 17014KT 35/07 A2987 RMK A01 T03500069  RH  018%=      5-min Rain = 0
KSW1 150305Z 18015KT 35/07 A2987 RMK A01 T03490069  RH  018%=      5-min Rain = 0
KSW1 150306Z 18015KT 35/07 A2987 RMK A01 T03490069  RH  018%=      5-min Rain = 0
KSW1 150307Z 18014KT 35/07 A2987 RMK A01 T03490069  RH  018%=      5-min Rain = 0
KSW1 150308Z 17014KT 35/07 A2987 RMK A01 T03490069  RH  018%=      5-min Rain = 0
KSW1 150309Z 17014KT 35/07 A2987 RMK A01 T03490070  RH  018%=      5-min Rain = 0
KSW1 150310Z 17013KT 35/07 A2987 RMK A01 T03480070  RH  018%=      5-min Rain = 0
KSW1 150311Z 17013KT 35/07 A2987 RMK A01 T03480070  RH  018%=      5-min Rain = 0
KSW1 150312Z 17013KT 35/07 A2987 RMK A01 T03470071  RH  018%=      5-min Rain = 0
KSW1 150313Z 17013KT 35/07 A2987 RMK A01 T03470071  RH  018%=      5-min Rain = 0
KSW1 150314Z 17014KT 35/07 A2987 RMK A01 T03460071  RH  018%=      5-min Rain = 0
KSW1 150315Z 17013KT 35/07 A2987 RMK A01 T03470071  RH  018%=      5-min Rain = 0
KSW1 150316Z 17011KT 35/07 A2987 RMK A01 T03460071  RH  018%=      5-min Rain = 0
KSW1 150317Z 18013G18KT 35/07 A2987 RMK A01 T03450071  RH  018%=      5-min Rain = 0
KSW1 150318Z 18014KT 34/07 A2987 RMK A01 T03440071  RH  019%=      5-min Rain = 0
KSW1 150319Z 18014KT 35/07 A2987 RMK A01 T03450072  RH  019%=      5-min Rain = 0
KSW1 150320Z 18014KT 35/07 A2987 RMK A01 T03450071  RH  019%=      5-min Rain = 0
KSW1 150321Z 18012KT 35/07 A2987 RMK A01 T03450072  RH  019%=      5-min Rain = 0
KSW1 150322Z 18011KT 34/07 A2987 RMK A01 T03440072  RH  019%=      5-min Rain = 0
KSW1 150323Z 18012KT 34/07 A2987 RMK A01 T03430072  RH  019%=      5-min Rain = 0
KSW1 150324Z 18011KT 34/07 A2987 RMK A01 T03430072  RH  019%=      5-min Rain = 0
KSW1 150325Z 18012KT 34/07 A2987 RMK A01 T03420072  RH  019%=      5-min Rain = 0
KSW1 150326Z 18010KT 34/07 A2987 RMK A01 T03410072  RH  019%=      5-min Rain = 0
KSW1 150327Z 18012KT 34/07 A2987 RMK A01 T03410072  RH  019%=      5-min Rain = 0
KSW1 150328Z 18013KT 34/07 A2987 RMK A01 T03410072  RH  019%=      5-min Rain = 0
KSW1 150329Z 18014KT 34/07 A2987 RMK A01 T03410072  RH  019%=      5-min Rain = 0
KSW1 150330Z 18013KT 34/07 A2987 RMK A01 T03420072  RH  019%=      5-min Rain = 0
KSW1 150331Z 18013KT 34/07 A2987 RMK A01 T03420072  RH  019%=      5-min Rain = 0
KSW1 150332Z 18014KT 34/07 A2987 RMK A01 T03420071  RH  019%=      5-min Rain = 0
KSW1 150333Z 18014KT 34/07 A2987 RMK A01 T03420072  RH  019%=      5-min Rain = 0
KSW1 150334Z 18014KT 34/07 A2987 RMK A01 T03430071  RH  019%=      5-min Rain = 0
KSW1 150335Z 18014KT 34/07 A2987 RMK A01 T03430071  RH  019%=      5-min Rain = 0
KSW1 150336Z 18013KT 34/07 A2987 RMK A01 T03420071  RH  019%=      5-min Rain = 0
KSW1 150337Z 18014KT 34/07 A2987 RMK A01 T03420071  RH  019%=      5-min Rain = 0
KSW1 150338Z 18015KT 34/07 A2987 RMK A01 T03430071  RH  019%=      5-min Rain = 0
KSW1 150339Z 18015KT 34/07 A2987 RMK A01 T03440072  RH  019%=      5-min Rain = 0
KSW1 150340Z 18016KT 34/07 A2987 RMK A01 T03440071  RH  019%=      5-min Rain = 0
KSW1 150341Z 18014KT 34/07 A2987 RMK A01 T03430071  RH  019%=      5-min Rain = 0
KSW1 150342Z 18014KT 34/07 A2987 RMK A01 T03430072  RH  019%=      5-min Rain = 0
KSW1 150343Z 18014KT 34/07 A2987 RMK A01 T03420072  RH  019%=      5-min Rain = 0
KSW1 150344Z 18014KT 34/07 A2987 RMK A01 T03420072  RH  019%=      5-min Rain = 0
KSW1 150345Z 18015KT 34/07 A2987 RMK A01 T03420073  RH  019%=      5-min Rain = 0
KSW1 150346Z 18014KT 34/07 A2987 RMK A01 T03420074  RH  019%=      5-min Rain = 0
KSW1 150347Z 18015G20KT 34/07 A2987 RMK A01 T03420074  RH  019%=      5-min Rain = 0
KSW1 150348Z 18014KT 34/07 A2987 RMK A01 T03420074  RH  019%=      5-min Rain = 0
KSW1 150349Z 18013KT 34/08 A2987 RMK A01 T03420075  RH  019%=      5-min Rain = 0
KSW1 150350Z 18015KT 34/08 A2987 RMK A01 T03420075  RH  019%=      5-min Rain = 0
KSW1 150351Z 18014KT 34/08 A2987 RMK A01 T03420076  RH  019%=      5-min Rain = 0
KSW1 150352Z 18014KT 34/08 A2987 RMK A01 T03420076  RH  019%=      5-min Rain = 0
KSW1 150353Z 18015KT 34/08 A2987 RMK A01 T03420076  RH  019%=      5-min Rain = 0
KSW1 150354Z 18013KT 34/08 A2987 RMK A01 T03410076  RH  020%=      5-min Rain = 0
KSW1 150355Z 18015KT 34/08 A2987 RMK A01 T03410077  RH  020%=      5-min Rain = 0
KSW1 150356Z 18013KT 34/08 A2987 RMK A01 T03410077  RH  020%=      5-min Rain = 0
KSW1 150357Z 18013KT 34/08 A2987 RMK A01 T03410078  RH  020%=      5-min Rain = 0
KSW1 150358Z 18013KT 34/08 A2988 RMK A01 T03400078  RH  020%=      5-min Rain = 0
KSW1 150359Z 18013KT 34/08 A2988 RMK A01 T03400078  RH  020%=      5-min Rain = 0
KSW1 150400Z 18013KT 34/08 A2988 RMK A01 T03400079  RH  020%=      5-min Rain = 0
KSW1 150401Z 17013KT 34/08 A2988 RMK A01 T03390079  RH  020%=      5-min Rain = 0
KSW1 150402Z 18013KT 34/08 A2988 RMK A01 T03380079  RH  020%=      5-min Rain = 0
KSW1 150403Z 18014KT 34/08 A2988 RMK A01 T03380080  RH  020%=      5-min Rain = 0
KSW1 150404Z 18014KT 34/08 A2988 RMK A01 T03380080  RH  020%=      5-min Rain = 0
KSW1 150405Z 18013KT 34/08 A2988 RMK A01 T03380080  RH  020%=      5-min Rain = 0
KSW1 150406Z 18013G19KT 34/08 A2988 RMK A01 T03380081  RH  021%=      5-min Rain = 0
KSW1 150407Z 18015KT 34/08 A2988 RMK A01 T03370082  RH  021%=      5-min Rain = 0
KSW1 150408Z 18015KT 34/08 A2988 RMK A01 T03370082  RH  021%=      5-min Rain = 0
KSW1 150409Z 18014KT 34/08 A2988 RMK A01 T03380082  RH  021%=      5-min Rain = 0
KSW1 150410Z 18013KT 34/08 A2988 RMK A01 T03380083  RH  021%=      5-min Rain = 0
KSW1 150411Z 18013KT 34/08 A2988 RMK A01 T03380083  RH  021%=      5-min Rain = 0
KSW1 150412Z 18014KT 34/08 A2988 RMK A01 T03370083  RH  021%=      5-min Rain = 0
KSW1 150413Z 17014KT 34/08 A2989 RMK A01 T03370084  RH  021%=      5-min Rain = 0
KSW1 150414Z 18013G18KT 34/08 A2989 RMK A01 T03360084  RH  021%=      5-min Rain = 0
KSW1 150415Z 18013G18KT 34/09 A2989 RMK A01 T03360085  RH  021%=      5-min Rain = 0
KSW1 150416Z 18014KT 34/09 A2989 RMK A01 T03360085  RH  021%=      5-min Rain = 0
KSW1 150417Z 18013KT 34/09 A2989 RMK A01 T03350085  RH  021%=      5-min Rain = 0
KSW1 150418Z 18013KT 34/09 A2989 RMK A01 T03350086  RH  022%=      5-min Rain = 0
KSW1 150419Z 18015G20KT 34/09 A2989 RMK A01 T03350086  RH  022%=      5-min Rain = 0
KSW1 150420Z 18015KT 33/09 A2989 RMK A01 T03340086  RH  022%=      5-min Rain = 0
KSW1 150421Z 18014G19KT 34/09 A2989 RMK A01 T03350087  RH  022%=      5-min Rain = 0
KSW1 150422Z 18015KT 34/09 A2989 RMK A01 T03350087  RH  022%=      5-min Rain = 0
KSW1 150423Z 18014KT 34/09 A2989 RMK A01 T03350087  RH  022%=      5-min Rain = 0
KSW1 150424Z 18012KT 34/09 A2989 RMK A01 T03350088  RH  022%=      5-min Rain = 0
KSW1 150425Z 18014KT 33/09 A2989 RMK A01 T03330088  RH  022%=      5-min Rain = 0
KSW1 150426Z 18015KT 33/09 A2989 RMK A01 T03330088  RH  022%=      5-min Rain = 0
KSW1 150427Z 18012KT 33/09 A2989 RMK A01 T03330089  RH  022%=      5-min Rain = 0
KSW1 150428Z 18014KT 33/09 A2989 RMK A01 T03320088  RH  022%=      5-min Rain = 0
KSW1 150429Z 18013KT 33/09 A2989 RMK A01 T03320089  RH  022%=      5-min Rain = 0
KSW1 150430Z 18013KT 33/09 A2989 RMK A01 T03310088  RH  022%=      5-min Rain = 0
KSW1 150431Z 18013KT 33/09 A299 RMK A01 T03300088  RH  022%=      5-min Rain = 0
KSW1 150432Z 18013KT 33/09 A299 RMK A01 T03300088  RH  022%=      5-min Rain = 0
KSW1 150433Z 18013KT 33/09 A299 RMK A01 T03310088  RH  022%=      5-min Rain = 0
KSW1 150434Z 18012KT 33/09 A299 RMK A01 T03300088  RH  022%=      5-min Rain = 0
KSW1 150435Z 18015G20KT 33/09 A299 RMK A01 T03300088  RH  022%=      5-min Rain = 0
KSW1 150436Z 18015KT 33/09 A299 RMK A01 T03300087  RH  022%=      5-min Rain = 0
KSW1 150437Z 18014KT 33/09 A299 RMK A01 T03300087  RH  022%=      5-min Rain = 0
KSW1 150438Z 18013KT 33/09 A299 RMK A01 T03300087  RH  022%=      5-min Rain = 0
KSW1 150439Z 18013KT 33/09 A299 RMK A01 T03290087  RH  022%=      5-min Rain = 0
KSW1 150440Z 18013KT 33/09 A299 RMK A01 T03290087  RH  022%=      5-min Rain = 0
KSW1 150441Z 18012KT 33/09 A299 RMK A01 T03290087  RH  022%=      5-min Rain = 0
KSW1 150442Z 18015KT 33/09 A299 RMK A01 T03280087  RH  023%=      5-min Rain = 0
KSW1 150443Z 18013KT 33/09 A299 RMK A01 T03280087  RH  022%=      5-min Rain = 0
KSW1 150444Z 18013KT 33/09 A299 RMK A01 T03290087  RH  022%=      5-min Rain = 0
KSW1 150445Z 18014KT 33/09 A299 RMK A01 T03290087  RH  022%=      5-min Rain = 0
KSW1 150446Z 18014KT 33/09 A299 RMK A01 T03280087  RH  023%=      5-min Rain = 0
KSW1 150447Z 18012KT 33/09 A299 RMK A01 T03280087  RH  023%=      5-min Rain = 0
KSW1 150448Z 18012KT 33/09 A299 RMK A01 T03270087  RH  023%=      5-min Rain = 0
KSW1 150449Z 18014KT 33/09 A299 RMK A01 T03260087  RH  023%=      5-min Rain = 0
KSW1 150450Z 18015G21KT 33/09 A299 RMK A01 T03260086  RH  023%=      5-min Rain = 0
KSW1 150451Z 18014KT 33/09 A299 RMK A01 T03270087  RH  023%=      5-min Rain = 0
KSW1 150452Z 17013KT 33/09 A299 RMK A01 T03270087  RH  023%=      5-min Rain = 0
KSW1 150453Z 17012KT 33/09 A299 RMK A01 T03270087  RH  023%=      5-min Rain = 0
KSW1 150454Z 17014KT 33/09 A299 RMK A01 T03260087  RH  023%=      5-min Rain = 0
KSW1 150455Z 18013KT 33/09 A299 RMK A01 T03260087  RH  023%=      5-min Rain = 0
KSW1 150456Z 17014KT 33/09 A299 RMK A01 T03260087  RH  023%=      5-min Rain = 0
KSW1 150457Z 17014KT 33/09 A299 RMK A01 T03250087  RH  023%=      5-min Rain = 0
KSW1 150458Z 17015KT 33/09 A299 RMK A01 T03260087  RH  023%=      5-min Rain = 0
KSW1 150459Z 17014KT 33/09 A299 RMK A01 T03260087  RH  023%=      5-min Rain = 0

Page generated in 0.1236 seconds.